<?xml version="1.0" encoding="UTF-8" standalone="no" ?>
<gpx xmlns="http://www.topografix.com/GPX/1/1" xmlns:xsi="http://www.w3.org/2001/XMLSchema-instance" xsi:schemaLocation="http://www.topografix.com/GPX/1/1 http://www.topografix.com/GPX/1/1/gpx.xsd" version="1.1" creator="VisuGPX - https://www.visugpx.com">
  <metadata>
    <name>Malataverne</name>
    <desc><![CDATA[

]]></desc>
  </metadata>
  <trk>
    <name><![CDATA[Malataverne]]></name>
    <trkseg>
      <trkpt lat="44.46058" lon="4.73526">
        <ele>147.02</ele>
        <time>2022-01-16T12:49:18Z</time>
      </trkpt>
      <trkpt lat="44.46059" lon="4.73526">
        <ele>147.23</ele>
        <time>2022-01-16T12:49:19Z</time>
      </trkpt>
      <trkpt lat="44.46071" lon="4.7352">
        <ele>148.9</ele>
        <time>2022-01-16T12:49:31Z</time>
      </trkpt>
      <trkpt lat="44.46072" lon="4.73519">
        <ele>148.87</ele>
        <time>2022-01-16T12:49:32Z</time>
      </trkpt>
      <trkpt lat="44.46072" lon="4.73518">
        <ele>149.23</ele>
        <time>2022-01-16T12:49:33Z</time>
      </trkpt>
      <trkpt lat="44.46072" lon="4.73516">
        <ele>149.66</ele>
        <time>2022-01-16T12:49:34Z</time>
      </trkpt>
      <trkpt lat="44.46072" lon="4.73515">
        <ele>149.77</ele>
        <time>2022-01-16T12:49:35Z</time>
      </trkpt>
      <trkpt lat="44.46072" lon="4.73513">
        <ele>149.89</ele>
        <time>2022-01-16T12:49:36Z</time>
      </trkpt>
      <trkpt lat="44.46073" lon="4.73512">
        <ele>149.96</ele>
        <time>2022-01-16T12:49:37Z</time>
      </trkpt>
      <trkpt lat="44.4607" lon="4.73489">
        <ele>152.28</ele>
        <time>2022-01-16T12:49:53Z</time>
      </trkpt>
      <trkpt lat="44.46069" lon="4.73485">
        <ele>152.77</ele>
        <time>2022-01-16T12:49:56Z</time>
      </trkpt>
      <trkpt lat="44.46068" lon="4.73483">
        <ele>153.15</ele>
        <time>2022-01-16T12:49:58Z</time>
      </trkpt>
      <trkpt lat="44.46061" lon="4.73467">
        <ele>154.3</ele>
        <time>2022-01-16T12:50:12Z</time>
      </trkpt>
      <trkpt lat="44.46058" lon="4.73463">
        <ele>155.87</ele>
        <time>2022-01-16T12:50:17Z</time>
      </trkpt>
      <trkpt lat="44.46058" lon="4.73462">
        <ele>156.14</ele>
        <time>2022-01-16T12:50:18Z</time>
      </trkpt>
      <trkpt lat="44.46057" lon="4.73461">
        <ele>156.61</ele>
        <time>2022-01-16T12:50:19Z</time>
      </trkpt>
      <trkpt lat="44.46057" lon="4.73459">
        <ele>156.97</ele>
        <time>2022-01-16T12:50:20Z</time>
      </trkpt>
      <trkpt lat="44.46056" lon="4.73458">
        <ele>157.14</ele>
        <time>2022-01-16T12:50:21Z</time>
      </trkpt>
      <trkpt lat="44.46055" lon="4.73456">
        <ele>157.11</ele>
        <time>2022-01-16T12:50:22Z</time>
      </trkpt>
      <trkpt lat="44.46055" lon="4.73455">
        <ele>157.31</ele>
        <time>2022-01-16T12:50:23Z</time>
      </trkpt>
      <trkpt lat="44.46046" lon="4.73437">
        <ele>158.92</ele>
        <time>2022-01-16T12:50:40Z</time>
      </trkpt>
      <trkpt lat="44.46045" lon="4.7343">
        <ele>159.39</ele>
        <time>2022-01-16T12:50:46Z</time>
      </trkpt>
      <trkpt lat="44.46044" lon="4.73429">
        <ele>159.34</ele>
        <time>2022-01-16T12:50:47Z</time>
      </trkpt>
      <trkpt lat="44.46044" lon="4.73428">
        <ele>159.39</ele>
        <time>2022-01-16T12:50:48Z</time>
      </trkpt>
      <trkpt lat="44.46043" lon="4.73426">
        <ele>159.29</ele>
        <time>2022-01-16T12:50:49Z</time>
      </trkpt>
      <trkpt lat="44.4604" lon="4.73423">
        <ele>159.67</ele>
        <time>2022-01-16T12:50:53Z</time>
      </trkpt>
      <trkpt lat="44.46034" lon="4.73409">
        <ele>161.6</ele>
        <time>2022-01-16T12:51:05Z</time>
      </trkpt>
      <trkpt lat="44.46032" lon="4.73404">
        <ele>160.3</ele>
        <time>2022-01-16T12:51:08Z</time>
      </trkpt>
      <trkpt lat="44.4602" lon="4.73382">
        <ele>160.82</ele>
        <time>2022-01-16T12:51:25Z</time>
      </trkpt>
      <trkpt lat="44.46017" lon="4.73375">
        <ele>162.79</ele>
        <time>2022-01-16T12:51:30Z</time>
      </trkpt>
      <trkpt lat="44.46013" lon="4.73366">
        <ele>160.88</ele>
        <time>2022-01-16T12:51:36Z</time>
      </trkpt>
      <trkpt lat="44.46005" lon="4.73334">
        <ele>160.46</ele>
        <time>2022-01-16T12:51:54Z</time>
      </trkpt>
      <trkpt lat="44.46" lon="4.73309">
        <ele>161.48</ele>
        <time>2022-01-16T12:52:11Z</time>
      </trkpt>
      <trkpt lat="44.45998" lon="4.73282">
        <ele>163.09</ele>
        <time>2022-01-16T12:52:26Z</time>
      </trkpt>
      <trkpt lat="44.45994" lon="4.73256">
        <ele>163.06</ele>
        <time>2022-01-16T12:52:41Z</time>
      </trkpt>
      <trkpt lat="44.45992" lon="4.73229">
        <ele>163.51</ele>
        <time>2022-01-16T12:52:57Z</time>
      </trkpt>
      <trkpt lat="44.45992" lon="4.73228">
        <ele>163.41</ele>
        <time>2022-01-16T12:52:58Z</time>
      </trkpt>
      <trkpt lat="44.45991" lon="4.73226">
        <ele>163.69</ele>
        <time>2022-01-16T12:52:59Z</time>
      </trkpt>
      <trkpt lat="44.45991" lon="4.73224">
        <ele>163.63</ele>
        <time>2022-01-16T12:53:00Z</time>
      </trkpt>
      <trkpt lat="44.45991" lon="4.73223">
        <ele>163.79</ele>
        <time>2022-01-16T12:53:01Z</time>
      </trkpt>
      <trkpt lat="44.45987" lon="4.73203">
        <ele>165.58</ele>
        <time>2022-01-16T12:53:18Z</time>
      </trkpt>
      <trkpt lat="44.45982" lon="4.73188">
        <ele>167.21</ele>
        <time>2022-01-16T12:53:33Z</time>
      </trkpt>
      <trkpt lat="44.45981" lon="4.73184">
        <ele>166.72</ele>
        <time>2022-01-16T12:53:35Z</time>
      </trkpt>
      <trkpt lat="44.4598" lon="4.73183">
        <ele>166.64</ele>
        <time>2022-01-16T12:53:36Z</time>
      </trkpt>
      <trkpt lat="44.4598" lon="4.73181">
        <ele>166.68</ele>
        <time>2022-01-16T12:53:37Z</time>
      </trkpt>
      <trkpt lat="44.45979" lon="4.7318">
        <ele>166.3</ele>
        <time>2022-01-16T12:53:38Z</time>
      </trkpt>
      <trkpt lat="44.45979" lon="4.73178">
        <ele>166.33</ele>
        <time>2022-01-16T12:53:39Z</time>
      </trkpt>
      <trkpt lat="44.45978" lon="4.73176">
        <ele>166.3</ele>
        <time>2022-01-16T12:53:40Z</time>
      </trkpt>
      <trkpt lat="44.45978" lon="4.73174">
        <ele>166.29</ele>
        <time>2022-01-16T12:53:41Z</time>
      </trkpt>
      <trkpt lat="44.45971" lon="4.73148">
        <ele>168.13</ele>
        <time>2022-01-16T12:53:57Z</time>
      </trkpt>
      <trkpt lat="44.4597" lon="4.73136">
        <ele>169.13</ele>
        <time>2022-01-16T12:54:06Z</time>
      </trkpt>
      <trkpt lat="44.45969" lon="4.73132">
        <ele>169.98</ele>
        <time>2022-01-16T12:54:08Z</time>
      </trkpt>
      <trkpt lat="44.45967" lon="4.73119">
        <ele>170.34</ele>
        <time>2022-01-16T12:54:19Z</time>
      </trkpt>
      <trkpt lat="44.45966" lon="4.73114">
        <ele>170.21</ele>
        <time>2022-01-16T12:54:22Z</time>
      </trkpt>
      <trkpt lat="44.45966" lon="4.73113">
        <ele>170</ele>
        <time>2022-01-16T12:54:23Z</time>
      </trkpt>
      <trkpt lat="44.45966" lon="4.73111">
        <ele>170.07</ele>
        <time>2022-01-16T12:54:24Z</time>
      </trkpt>
      <trkpt lat="44.45965" lon="4.7311">
        <ele>169.86</ele>
        <time>2022-01-16T12:54:25Z</time>
      </trkpt>
      <trkpt lat="44.45965" lon="4.73109">
        <ele>169.72</ele>
        <time>2022-01-16T12:54:26Z</time>
      </trkpt>
      <trkpt lat="44.45965" lon="4.73107">
        <ele>169.68</ele>
        <time>2022-01-16T12:54:27Z</time>
      </trkpt>
      <trkpt lat="44.45964" lon="4.73106">
        <ele>169.67</ele>
        <time>2022-01-16T12:54:28Z</time>
      </trkpt>
      <trkpt lat="44.45964" lon="4.73104">
        <ele>169.62</ele>
        <time>2022-01-16T12:54:29Z</time>
      </trkpt>
      <trkpt lat="44.45956" lon="4.73079">
        <ele>171.59</ele>
        <time>2022-01-16T12:54:46Z</time>
      </trkpt>
      <trkpt lat="44.45951" lon="4.73059">
        <ele>172.45</ele>
        <time>2022-01-16T12:55:01Z</time>
      </trkpt>
      <trkpt lat="44.45951" lon="4.73056">
        <ele>172.43</ele>
        <time>2022-01-16T12:55:03Z</time>
      </trkpt>
      <trkpt lat="44.45951" lon="4.73054">
        <ele>172.61</ele>
        <time>2022-01-16T12:55:04Z</time>
      </trkpt>
      <trkpt lat="44.45951" lon="4.73052">
        <ele>172.56</ele>
        <time>2022-01-16T12:55:05Z</time>
      </trkpt>
      <trkpt lat="44.45951" lon="4.73049">
        <ele>172.75</ele>
        <time>2022-01-16T12:55:07Z</time>
      </trkpt>
      <trkpt lat="44.45951" lon="4.73047">
        <ele>172.8</ele>
        <time>2022-01-16T12:55:08Z</time>
      </trkpt>
      <trkpt lat="44.45951" lon="4.73046">
        <ele>172.74</ele>
        <time>2022-01-16T12:55:09Z</time>
      </trkpt>
      <trkpt lat="44.45951" lon="4.73044">
        <ele>172.73</ele>
        <time>2022-01-16T12:55:10Z</time>
      </trkpt>
      <trkpt lat="44.45951" lon="4.73042">
        <ele>172.92</ele>
        <time>2022-01-16T12:55:11Z</time>
      </trkpt>
      <trkpt lat="44.45951" lon="4.7304">
        <ele>173.12</ele>
        <time>2022-01-16T12:55:12Z</time>
      </trkpt>
      <trkpt lat="44.45951" lon="4.73038">
        <ele>173.53</ele>
        <time>2022-01-16T12:55:13Z</time>
      </trkpt>
      <trkpt lat="44.45951" lon="4.73037">
        <ele>174.02</ele>
        <time>2022-01-16T12:55:14Z</time>
      </trkpt>
      <trkpt lat="44.4595" lon="4.73016">
        <ele>174.64</ele>
        <time>2022-01-16T12:55:29Z</time>
      </trkpt>
      <trkpt lat="44.45951" lon="4.72998">
        <ele>174.99</ele>
        <time>2022-01-16T12:55:43Z</time>
      </trkpt>
      <trkpt lat="44.45951" lon="4.72994">
        <ele>175.24</ele>
        <time>2022-01-16T12:55:45Z</time>
      </trkpt>
      <trkpt lat="44.45951" lon="4.72992">
        <ele>175.2</ele>
        <time>2022-01-16T12:55:46Z</time>
      </trkpt>
      <trkpt lat="44.45951" lon="4.7299">
        <ele>175.28</ele>
        <time>2022-01-16T12:55:47Z</time>
      </trkpt>
      <trkpt lat="44.45951" lon="4.72988">
        <ele>175.44</ele>
        <time>2022-01-16T12:55:48Z</time>
      </trkpt>
      <trkpt lat="44.45952" lon="4.72986">
        <ele>175.49</ele>
        <time>2022-01-16T12:55:49Z</time>
      </trkpt>
      <trkpt lat="44.45952" lon="4.72984">
        <ele>175.63</ele>
        <time>2022-01-16T12:55:50Z</time>
      </trkpt>
      <trkpt lat="44.45952" lon="4.72982">
        <ele>175.51</ele>
        <time>2022-01-16T12:55:51Z</time>
      </trkpt>
      <trkpt lat="44.45957" lon="4.72961">
        <ele>176.4</ele>
        <time>2022-01-16T12:56:07Z</time>
      </trkpt>
      <trkpt lat="44.45957" lon="4.72955">
        <ele>176.86</ele>
        <time>2022-01-16T12:56:10Z</time>
      </trkpt>
      <trkpt lat="44.45956" lon="4.72953">
        <ele>176.89</ele>
        <time>2022-01-16T12:56:11Z</time>
      </trkpt>
      <trkpt lat="44.45953" lon="4.72933">
        <ele>177.03</ele>
        <time>2022-01-16T12:56:24Z</time>
      </trkpt>
      <trkpt lat="44.45952" lon="4.7293">
        <ele>177.03</ele>
        <time>2022-01-16T12:56:26Z</time>
      </trkpt>
      <trkpt lat="44.45951" lon="4.72919">
        <ele>177.64</ele>
        <time>2022-01-16T12:56:34Z</time>
      </trkpt>
      <trkpt lat="44.4595" lon="4.72917">
        <ele>177.73</ele>
        <time>2022-01-16T12:56:35Z</time>
      </trkpt>
      <trkpt lat="44.4595" lon="4.72915">
        <ele>177.84</ele>
        <time>2022-01-16T12:56:36Z</time>
      </trkpt>
      <trkpt lat="44.4595" lon="4.72913">
        <ele>177.86</ele>
        <time>2022-01-16T12:56:37Z</time>
      </trkpt>
      <trkpt lat="44.45949" lon="4.72911">
        <ele>177.79</ele>
        <time>2022-01-16T12:56:38Z</time>
      </trkpt>
      <trkpt lat="44.45949" lon="4.72909">
        <ele>177.81</ele>
        <time>2022-01-16T12:56:39Z</time>
      </trkpt>
      <trkpt lat="44.45949" lon="4.72907">
        <ele>177.88</ele>
        <time>2022-01-16T12:56:40Z</time>
      </trkpt>
      <trkpt lat="44.45949" lon="4.72905">
        <ele>178.06</ele>
        <time>2022-01-16T12:56:41Z</time>
      </trkpt>
      <trkpt lat="44.45948" lon="4.72893">
        <ele>178.99</ele>
        <time>2022-01-16T12:56:48Z</time>
      </trkpt>
      <trkpt lat="44.45955" lon="4.72879">
        <ele>180.12</ele>
        <time>2022-01-16T12:57:01Z</time>
      </trkpt>
      <trkpt lat="44.45962" lon="4.72869">
        <ele>181.66</ele>
        <time>2022-01-16T12:57:13Z</time>
      </trkpt>
      <trkpt lat="44.45964" lon="4.72866">
        <ele>181.94</ele>
        <time>2022-01-16T12:57:17Z</time>
      </trkpt>
      <trkpt lat="44.45966" lon="4.72863">
        <ele>182.32</ele>
        <time>2022-01-16T12:57:20Z</time>
      </trkpt>
      <trkpt lat="44.4597" lon="4.72858">
        <ele>182.93</ele>
        <time>2022-01-16T12:57:25Z</time>
      </trkpt>
      <trkpt lat="44.45981" lon="4.72842">
        <ele>183.08</ele>
        <time>2022-01-16T12:57:40Z</time>
      </trkpt>
      <trkpt lat="44.45992" lon="4.72825">
        <ele>184.35</ele>
        <time>2022-01-16T12:57:57Z</time>
      </trkpt>
      <trkpt lat="44.46001" lon="4.72812">
        <ele>185.17</ele>
        <time>2022-01-16T12:58:11Z</time>
      </trkpt>
      <trkpt lat="44.46009" lon="4.72798">
        <ele>184.72</ele>
        <time>2022-01-16T12:58:23Z</time>
      </trkpt>
      <trkpt lat="44.46017" lon="4.72785">
        <ele>185.59</ele>
        <time>2022-01-16T12:58:37Z</time>
      </trkpt>
      <trkpt lat="44.46032" lon="4.72766">
        <ele>186.61</ele>
        <time>2022-01-16T12:58:56Z</time>
      </trkpt>
      <trkpt lat="44.46042" lon="4.7275">
        <ele>186.76</ele>
        <time>2022-01-16T12:59:11Z</time>
      </trkpt>
      <trkpt lat="44.46043" lon="4.72748">
        <ele>186.55</ele>
        <time>2022-01-16T12:59:12Z</time>
      </trkpt>
      <trkpt lat="44.46043" lon="4.72747">
        <ele>186.6</ele>
        <time>2022-01-16T12:59:13Z</time>
      </trkpt>
      <trkpt lat="44.46044" lon="4.72745">
        <ele>187.1</ele>
        <time>2022-01-16T12:59:14Z</time>
      </trkpt>
      <trkpt lat="44.46058" lon="4.72724">
        <ele>187.77</ele>
        <time>2022-01-16T12:59:30Z</time>
      </trkpt>
      <trkpt lat="44.46068" lon="4.72719">
        <ele>187.84</ele>
        <time>2022-01-16T13:03:20Z</time>
      </trkpt>
      <trkpt lat="44.46069" lon="4.7272">
        <ele>187.96</ele>
        <time>2022-01-16T13:03:21Z</time>
      </trkpt>
      <trkpt lat="44.4607" lon="4.72721">
        <ele>188.08</ele>
        <time>2022-01-16T13:03:22Z</time>
      </trkpt>
      <trkpt lat="44.46071" lon="4.72722">
        <ele>187.97</ele>
        <time>2022-01-16T13:03:23Z</time>
      </trkpt>
      <trkpt lat="44.46072" lon="4.72722">
        <ele>187.86</ele>
        <time>2022-01-16T13:03:24Z</time>
      </trkpt>
      <trkpt lat="44.46076" lon="4.72722">
        <ele>188.28</ele>
        <time>2022-01-16T13:03:28Z</time>
      </trkpt>
      <trkpt lat="44.46083" lon="4.72726">
        <ele>189.75</ele>
        <time>2022-01-16T13:03:42Z</time>
      </trkpt>
      <trkpt lat="44.46084" lon="4.72737">
        <ele>192.33</ele>
        <time>2022-01-16T13:04:01Z</time>
      </trkpt>
      <trkpt lat="44.46078" lon="4.72747">
        <ele>192.81</ele>
        <time>2022-01-16T13:04:18Z</time>
      </trkpt>
      <trkpt lat="44.46075" lon="4.72756">
        <ele>194.25</ele>
        <time>2022-01-16T13:04:35Z</time>
      </trkpt>
      <trkpt lat="44.46071" lon="4.72768">
        <ele>194.52</ele>
        <time>2022-01-16T13:04:53Z</time>
      </trkpt>
      <trkpt lat="44.46068" lon="4.72775">
        <ele>196.2</ele>
        <time>2022-01-16T13:05:04Z</time>
      </trkpt>
      <trkpt lat="44.46064" lon="4.72787">
        <ele>198.11</ele>
        <time>2022-01-16T13:05:26Z</time>
      </trkpt>
      <trkpt lat="44.46062" lon="4.72813">
        <ele>201</ele>
        <time>2022-01-16T13:05:46Z</time>
      </trkpt>
      <trkpt lat="44.46063" lon="4.72836">
        <ele>203.91</ele>
        <time>2022-01-16T13:06:05Z</time>
      </trkpt>
      <trkpt lat="44.46061" lon="4.72859">
        <ele>206.74</ele>
        <time>2022-01-16T13:06:26Z</time>
      </trkpt>
      <trkpt lat="44.46061" lon="4.72879">
        <ele>208.78</ele>
        <time>2022-01-16T13:06:43Z</time>
      </trkpt>
      <trkpt lat="44.46054" lon="4.72883">
        <ele>206.67</ele>
        <time>2022-01-16T13:07:02Z</time>
      </trkpt>
      <trkpt lat="44.46057" lon="4.72886">
        <ele>210.74</ele>
        <time>2022-01-16T13:07:18Z</time>
      </trkpt>
      <trkpt lat="44.46057" lon="4.7289">
        <ele>211.84</ele>
        <time>2022-01-16T13:07:20Z</time>
      </trkpt>
      <trkpt lat="44.46064" lon="4.72903">
        <ele>212.05</ele>
        <time>2022-01-16T13:07:33Z</time>
      </trkpt>
      <trkpt lat="44.46075" lon="4.72912">
        <ele>213.19</ele>
        <time>2022-01-16T13:07:47Z</time>
      </trkpt>
      <trkpt lat="44.46083" lon="4.7291">
        <ele>216.21</ele>
        <time>2022-01-16T13:07:58Z</time>
      </trkpt>
      <trkpt lat="44.46102" lon="4.72903">
        <ele>218.33</ele>
        <time>2022-01-16T13:08:22Z</time>
      </trkpt>
      <trkpt lat="44.46118" lon="4.72892">
        <ele>220.42</ele>
        <time>2022-01-16T13:08:43Z</time>
      </trkpt>
      <trkpt lat="44.46132" lon="4.72884">
        <ele>222.23</ele>
        <time>2022-01-16T13:09:02Z</time>
      </trkpt>
      <trkpt lat="44.46148" lon="4.72872">
        <ele>223.15</ele>
        <time>2022-01-16T13:09:22Z</time>
      </trkpt>
      <trkpt lat="44.4616" lon="4.72855">
        <ele>222.57</ele>
        <time>2022-01-16T13:09:39Z</time>
      </trkpt>
      <trkpt lat="44.46161" lon="4.72849">
        <ele>223.69</ele>
        <time>2022-01-16T13:10:03Z</time>
      </trkpt>
      <trkpt lat="44.46164" lon="4.72841">
        <ele>224.92</ele>
        <time>2022-01-16T13:10:11Z</time>
      </trkpt>
      <trkpt lat="44.46171" lon="4.72824">
        <ele>224.91</ele>
        <time>2022-01-16T13:10:27Z</time>
      </trkpt>
      <trkpt lat="44.46181" lon="4.72804">
        <ele>223.42</ele>
        <time>2022-01-16T13:10:47Z</time>
      </trkpt>
      <trkpt lat="44.46197" lon="4.72792">
        <ele>223.12</ele>
        <time>2022-01-16T13:11:07Z</time>
      </trkpt>
      <trkpt lat="44.46214" lon="4.72791">
        <ele>224.63</ele>
        <time>2022-01-16T13:11:28Z</time>
      </trkpt>
      <trkpt lat="44.4623" lon="4.72799">
        <ele>223.5</ele>
        <time>2022-01-16T13:11:46Z</time>
      </trkpt>
      <trkpt lat="44.46235" lon="4.72801">
        <ele>223.41</ele>
        <time>2022-01-16T13:12:00Z</time>
      </trkpt>
      <trkpt lat="44.46237" lon="4.72802">
        <ele>223.64</ele>
        <time>2022-01-16T13:12:25Z</time>
      </trkpt>
      <trkpt lat="44.46237" lon="4.72806">
        <ele>223.39</ele>
        <time>2022-01-16T13:12:39Z</time>
      </trkpt>
      <trkpt lat="44.46234" lon="4.72821">
        <ele>224.42</ele>
        <time>2022-01-16T13:12:54Z</time>
      </trkpt>
      <trkpt lat="44.46226" lon="4.72837">
        <ele>225.31</ele>
        <time>2022-01-16T13:13:10Z</time>
      </trkpt>
      <trkpt lat="44.46226" lon="4.72843">
        <ele>226</ele>
        <time>2022-01-16T13:13:14Z</time>
      </trkpt>
      <trkpt lat="44.46223" lon="4.72859">
        <ele>225.74</ele>
        <time>2022-01-16T13:13:28Z</time>
      </trkpt>
      <trkpt lat="44.46219" lon="4.72872">
        <ele>226.64</ele>
        <time>2022-01-16T13:13:47Z</time>
      </trkpt>
      <trkpt lat="44.46211" lon="4.72877">
        <ele>226.5</ele>
        <time>2022-01-16T13:14:07Z</time>
      </trkpt>
      <trkpt lat="44.46205" lon="4.72875">
        <ele>225.17</ele>
        <time>2022-01-16T13:14:25Z</time>
      </trkpt>
      <trkpt lat="44.46207" lon="4.7287">
        <ele>224.68</ele>
        <time>2022-01-16T13:14:47Z</time>
      </trkpt>
      <trkpt lat="44.46208" lon="4.72867">
        <ele>223.63</ele>
        <time>2022-01-16T13:15:09Z</time>
      </trkpt>
      <trkpt lat="44.46209" lon="4.72874">
        <ele>223.42</ele>
        <time>2022-01-16T13:15:20Z</time>
      </trkpt>
      <trkpt lat="44.46208" lon="4.72886">
        <ele>223.79</ele>
        <time>2022-01-16T13:15:39Z</time>
      </trkpt>
      <trkpt lat="44.46203" lon="4.72897">
        <ele>223.66</ele>
        <time>2022-01-16T13:15:58Z</time>
      </trkpt>
      <trkpt lat="44.462" lon="4.72895">
        <ele>224.19</ele>
        <time>2022-01-16T13:16:06Z</time>
      </trkpt>
      <trkpt lat="44.46201" lon="4.7289">
        <ele>223.27</ele>
        <time>2022-01-16T13:16:23Z</time>
      </trkpt>
      <trkpt lat="44.46204" lon="4.72883">
        <ele>221.96</ele>
        <time>2022-01-16T13:16:33Z</time>
      </trkpt>
      <trkpt lat="44.46206" lon="4.72882">
        <ele>224.92</ele>
        <time>2022-01-16T13:16:44Z</time>
      </trkpt>
      <trkpt lat="44.46206" lon="4.72883">
        <ele>223.51</ele>
        <time>2022-01-16T13:17:10Z</time>
      </trkpt>
      <trkpt lat="44.46205" lon="4.72885">
        <ele>223.69</ele>
        <time>2022-01-16T13:17:33Z</time>
      </trkpt>
      <trkpt lat="44.46205" lon="4.72883">
        <ele>224.81</ele>
        <time>2022-01-16T13:17:56Z</time>
      </trkpt>
      <trkpt lat="44.46205" lon="4.72885">
        <ele>224.21</ele>
        <time>2022-01-16T13:18:17Z</time>
      </trkpt>
      <trkpt lat="44.46199" lon="4.72887">
        <ele>223.75</ele>
        <time>2022-01-16T13:18:35Z</time>
      </trkpt>
      <trkpt lat="44.4619" lon="4.72887">
        <ele>224.56</ele>
        <time>2022-01-16T13:18:45Z</time>
      </trkpt>
      <trkpt lat="44.46182" lon="4.72884">
        <ele>224.83</ele>
        <time>2022-01-16T13:18:57Z</time>
      </trkpt>
      <trkpt lat="44.46174" lon="4.72876">
        <ele>224.64</ele>
        <time>2022-01-16T13:19:15Z</time>
      </trkpt>
      <trkpt lat="44.46174" lon="4.72869">
        <ele>224.14</ele>
        <time>2022-01-16T13:19:27Z</time>
      </trkpt>
      <trkpt lat="44.46176" lon="4.72872">
        <ele>223.28</ele>
        <time>2022-01-16T13:19:33Z</time>
      </trkpt>
      <trkpt lat="44.46183" lon="4.72884">
        <ele>223.94</ele>
        <time>2022-01-16T13:19:47Z</time>
      </trkpt>
      <trkpt lat="44.46189" lon="4.72884">
        <ele>223.39</ele>
        <time>2022-01-16T13:20:01Z</time>
      </trkpt>
      <trkpt lat="44.46187" lon="4.72883">
        <ele>224.39</ele>
        <time>2022-01-16T13:20:03Z</time>
      </trkpt>
      <trkpt lat="44.46187" lon="4.72882">
        <ele>224.45</ele>
        <time>2022-01-16T13:20:04Z</time>
      </trkpt>
      <trkpt lat="44.46183" lon="4.72878">
        <ele>224.51</ele>
        <time>2022-01-16T13:20:20Z</time>
      </trkpt>
      <trkpt lat="44.46185" lon="4.72876">
        <ele>226.25</ele>
        <time>2022-01-16T13:20:24Z</time>
      </trkpt>
      <trkpt lat="44.46188" lon="4.72874">
        <ele>225.49</ele>
        <time>2022-01-16T13:20:44Z</time>
      </trkpt>
      <trkpt lat="44.46186" lon="4.72879">
        <ele>225.34</ele>
        <time>2022-01-16T13:21:06Z</time>
      </trkpt>
      <trkpt lat="44.46193" lon="4.72873">
        <ele>224.38</ele>
        <time>2022-01-16T13:21:22Z</time>
      </trkpt>
      <trkpt lat="44.46196" lon="4.72864">
        <ele>224.35</ele>
        <time>2022-01-16T13:21:41Z</time>
      </trkpt>
      <trkpt lat="44.46194" lon="4.72859">
        <ele>223.77</ele>
        <time>2022-01-16T13:22:00Z</time>
      </trkpt>
      <trkpt lat="44.46194" lon="4.72855">
        <ele>224.99</ele>
        <time>2022-01-16T13:22:23Z</time>
      </trkpt>
      <trkpt lat="44.46198" lon="4.7286">
        <ele>223.85</ele>
        <time>2022-01-16T13:22:43Z</time>
      </trkpt>
      <trkpt lat="44.46199" lon="4.72869">
        <ele>224.71</ele>
        <time>2022-01-16T13:22:58Z</time>
      </trkpt>
      <trkpt lat="44.46204" lon="4.72872">
        <ele>226.18</ele>
        <time>2022-01-16T13:23:06Z</time>
      </trkpt>
      <trkpt lat="44.46209" lon="4.72874">
        <ele>226.57</ele>
        <time>2022-01-16T13:23:12Z</time>
      </trkpt>
      <trkpt lat="44.46216" lon="4.72875">
        <ele>216.54</ele>
        <time>2022-01-16T13:23:25Z</time>
      </trkpt>
      <trkpt lat="44.46216" lon="4.72875">
        <ele>221.29</ele>
        <time>2022-01-16T13:23:26Z</time>
      </trkpt>
      <trkpt lat="44.46216" lon="4.72874">
        <ele>225.36</ele>
        <time>2022-01-16T13:23:27Z</time>
      </trkpt>
      <trkpt lat="44.46216" lon="4.72874">
        <ele>225.43</ele>
        <time>2022-01-16T13:23:28Z</time>
      </trkpt>
      <trkpt lat="44.46216" lon="4.7287">
        <ele>225.5</ele>
        <time>2022-01-16T13:23:57Z</time>
      </trkpt>
      <trkpt lat="44.46217" lon="4.72866">
        <ele>225.03</ele>
        <time>2022-01-16T13:24:26Z</time>
      </trkpt>
      <trkpt lat="44.46212" lon="4.72867">
        <ele>225.44</ele>
        <time>2022-01-16T13:24:55Z</time>
      </trkpt>
      <trkpt lat="44.46212" lon="4.72865">
        <ele>224.68</ele>
        <time>2022-01-16T13:25:25Z</time>
      </trkpt>
      <trkpt lat="44.46214" lon="4.72863">
        <ele>225.68</ele>
        <time>2022-01-16T13:25:57Z</time>
      </trkpt>
      <trkpt lat="44.46215" lon="4.72873">
        <ele>225.34</ele>
        <time>2022-01-16T13:26:27Z</time>
      </trkpt>
      <trkpt lat="44.46216" lon="4.72875">
        <ele>225.09</ele>
        <time>2022-01-16T13:26:57Z</time>
      </trkpt>
      <trkpt lat="44.46214" lon="4.72874">
        <ele>225.8</ele>
        <time>2022-01-16T13:27:27Z</time>
      </trkpt>
      <trkpt lat="44.46217" lon="4.72869">
        <ele>225.42</ele>
        <time>2022-01-16T13:27:59Z</time>
      </trkpt>
      <trkpt lat="44.4622" lon="4.7286">
        <ele>226.19</ele>
        <time>2022-01-16T13:28:31Z</time>
      </trkpt>
      <trkpt lat="44.46219" lon="4.7286">
        <ele>225</ele>
        <time>2022-01-16T13:29:01Z</time>
      </trkpt>
      <trkpt lat="44.46218" lon="4.72865">
        <ele>224.4</ele>
        <time>2022-01-16T13:29:31Z</time>
      </trkpt>
      <trkpt lat="44.46217" lon="4.72866">
        <ele>224.8</ele>
        <time>2022-01-16T13:30:00Z</time>
      </trkpt>
      <trkpt lat="44.46215" lon="4.72872">
        <ele>226.01</ele>
        <time>2022-01-16T13:30:29Z</time>
      </trkpt>
      <trkpt lat="44.46214" lon="4.72874">
        <ele>225.53</ele>
        <time>2022-01-16T13:30:58Z</time>
      </trkpt>
      <trkpt lat="44.46214" lon="4.72876">
        <ele>224.84</ele>
        <time>2022-01-16T13:31:30Z</time>
      </trkpt>
      <trkpt lat="44.46215" lon="4.72874">
        <ele>224.42</ele>
        <time>2022-01-16T13:32:01Z</time>
      </trkpt>
      <trkpt lat="44.46215" lon="4.72873">
        <ele>217.83</ele>
        <time>2022-01-16T13:32:03Z</time>
      </trkpt>
      <trkpt lat="44.46215" lon="4.72873">
        <ele>224.77</ele>
        <time>2022-01-16T13:32:04Z</time>
      </trkpt>
      <trkpt lat="44.46215" lon="4.72873">
        <ele>234.23</ele>
        <time>2022-01-16T13:32:21Z</time>
      </trkpt>
      <trkpt lat="44.46215" lon="4.72873">
        <ele>229.15</ele>
        <time>2022-01-16T13:32:22Z</time>
      </trkpt>
      <trkpt lat="44.46215" lon="4.72874">
        <ele>225.31</ele>
        <time>2022-01-16T13:32:24Z</time>
      </trkpt>
      <trkpt lat="44.46213" lon="4.72876">
        <ele>225.16</ele>
        <time>2022-01-16T13:32:54Z</time>
      </trkpt>
      <trkpt lat="44.46214" lon="4.72878">
        <ele>224.11</ele>
        <time>2022-01-16T13:33:22Z</time>
      </trkpt>
      <trkpt lat="44.46215" lon="4.72877">
        <ele>225.68</ele>
        <time>2022-01-16T13:33:54Z</time>
      </trkpt>
      <trkpt lat="44.46215" lon="4.72877">
        <ele>223.2</ele>
        <time>2022-01-16T13:33:58Z</time>
      </trkpt>
      <trkpt lat="44.46215" lon="4.72877">
        <ele>224.86</ele>
        <time>2022-01-16T13:34:38Z</time>
      </trkpt>
      <trkpt lat="44.46215" lon="4.72877">
        <ele>224.53</ele>
        <time>2022-01-16T13:35:27Z</time>
      </trkpt>
      <trkpt lat="44.46214" lon="4.72879">
        <ele>224.01</ele>
        <time>2022-01-16T13:36:08Z</time>
      </trkpt>
      <trkpt lat="44.46214" lon="4.72878">
        <ele>224.34</ele>
        <time>2022-01-16T13:36:36Z</time>
      </trkpt>
      <trkpt lat="44.46215" lon="4.7288">
        <ele>224.29</ele>
        <time>2022-01-16T13:37:06Z</time>
      </trkpt>
      <trkpt lat="44.46215" lon="4.7288">
        <ele>221.98</ele>
        <time>2022-01-16T13:37:14Z</time>
      </trkpt>
      <trkpt lat="44.46212" lon="4.7288">
        <ele>223.9</ele>
        <time>2022-01-16T13:37:44Z</time>
      </trkpt>
      <trkpt lat="44.46213" lon="4.7288">
        <ele>223.76</ele>
        <time>2022-01-16T13:38:13Z</time>
      </trkpt>
      <trkpt lat="44.46214" lon="4.72879">
        <ele>224.19</ele>
        <time>2022-01-16T13:38:39Z</time>
      </trkpt>
      <trkpt lat="44.46215" lon="4.72878">
        <ele>223.24</ele>
        <time>2022-01-16T13:39:11Z</time>
      </trkpt>
      <trkpt lat="44.46215" lon="4.72878">
        <ele>223.12</ele>
        <time>2022-01-16T13:39:12Z</time>
      </trkpt>
      <trkpt lat="44.46214" lon="4.72876">
        <ele>224</ele>
        <time>2022-01-16T13:39:45Z</time>
      </trkpt>
      <trkpt lat="44.46213" lon="4.72874">
        <ele>224.77</ele>
        <time>2022-01-16T13:39:57Z</time>
      </trkpt>
      <trkpt lat="44.46216" lon="4.72875">
        <ele>224.95</ele>
        <time>2022-01-16T13:40:15Z</time>
      </trkpt>
      <trkpt lat="44.46221" lon="4.72864">
        <ele>225.51</ele>
        <time>2022-01-16T13:40:30Z</time>
      </trkpt>
      <trkpt lat="44.46223" lon="4.72856">
        <ele>222.71</ele>
        <time>2022-01-16T13:40:38Z</time>
      </trkpt>
      <trkpt lat="44.46222" lon="4.72855">
        <ele>222.69</ele>
        <time>2022-01-16T13:40:39Z</time>
      </trkpt>
      <trkpt lat="44.46227" lon="4.72839">
        <ele>223.34</ele>
        <time>2022-01-16T13:40:54Z</time>
      </trkpt>
      <trkpt lat="44.46233" lon="4.72824">
        <ele>222.75</ele>
        <time>2022-01-16T13:41:06Z</time>
      </trkpt>
      <trkpt lat="44.46238" lon="4.72807">
        <ele>221.81</ele>
        <time>2022-01-16T13:41:19Z</time>
      </trkpt>
      <trkpt lat="44.46254" lon="4.72802">
        <ele>222.73</ele>
        <time>2022-01-16T13:41:39Z</time>
      </trkpt>
      <trkpt lat="44.4627" lon="4.72816">
        <ele>222.94</ele>
        <time>2022-01-16T13:41:58Z</time>
      </trkpt>
      <trkpt lat="44.46282" lon="4.72834">
        <ele>223.64</ele>
        <time>2022-01-16T13:42:18Z</time>
      </trkpt>
      <trkpt lat="44.46287" lon="4.72854">
        <ele>223.89</ele>
        <time>2022-01-16T13:42:34Z</time>
      </trkpt>
      <trkpt lat="44.46288" lon="4.72857">
        <ele>223.43</ele>
        <time>2022-01-16T13:42:36Z</time>
      </trkpt>
      <trkpt lat="44.4629" lon="4.72862">
        <ele>225.18</ele>
        <time>2022-01-16T13:42:39Z</time>
      </trkpt>
      <trkpt lat="44.46302" lon="4.72882">
        <ele>224.2</ele>
        <time>2022-01-16T13:43:01Z</time>
      </trkpt>
      <trkpt lat="44.4631" lon="4.729">
        <ele>223.64</ele>
        <time>2022-01-16T13:43:17Z</time>
      </trkpt>
      <trkpt lat="44.46315" lon="4.72908">
        <ele>220.84</ele>
        <time>2022-01-16T13:43:24Z</time>
      </trkpt>
      <trkpt lat="44.46316" lon="4.7291">
        <ele>224.51</ele>
        <time>2022-01-16T13:43:27Z</time>
      </trkpt>
      <trkpt lat="44.46324" lon="4.72911">
        <ele>223.33</ele>
        <time>2022-01-16T13:43:36Z</time>
      </trkpt>
      <trkpt lat="44.46331" lon="4.72907">
        <ele>223.22</ele>
        <time>2022-01-16T13:43:41Z</time>
      </trkpt>
      <trkpt lat="44.46342" lon="4.72905">
        <ele>223.01</ele>
        <time>2022-01-16T13:43:56Z</time>
      </trkpt>
      <trkpt lat="44.46356" lon="4.72915">
        <ele>224.98</ele>
        <time>2022-01-16T13:44:14Z</time>
      </trkpt>
      <trkpt lat="44.4637" lon="4.72923">
        <ele>225.06</ele>
        <time>2022-01-16T13:44:30Z</time>
      </trkpt>
      <trkpt lat="44.46376" lon="4.72927">
        <ele>224.85</ele>
        <time>2022-01-16T13:44:37Z</time>
      </trkpt>
      <trkpt lat="44.46377" lon="4.72929">
        <ele>225.14</ele>
        <time>2022-01-16T13:44:39Z</time>
      </trkpt>
      <trkpt lat="44.46395" lon="4.72937">
        <ele>226.1</ele>
        <time>2022-01-16T13:44:56Z</time>
      </trkpt>
      <trkpt lat="44.46403" lon="4.72944">
        <ele>225.58</ele>
        <time>2022-01-16T13:45:06Z</time>
      </trkpt>
      <trkpt lat="44.46406" lon="4.72947">
        <ele>226.06</ele>
        <time>2022-01-16T13:45:09Z</time>
      </trkpt>
      <trkpt lat="44.46414" lon="4.72955">
        <ele>225.07</ele>
        <time>2022-01-16T13:45:20Z</time>
      </trkpt>
      <trkpt lat="44.46424" lon="4.7296">
        <ele>224.73</ele>
        <time>2022-01-16T13:45:29Z</time>
      </trkpt>
      <trkpt lat="44.46439" lon="4.72966">
        <ele>224.41</ele>
        <time>2022-01-16T13:45:46Z</time>
      </trkpt>
      <trkpt lat="44.4645" lon="4.72971">
        <ele>223.95</ele>
        <time>2022-01-16T13:46:05Z</time>
      </trkpt>
      <trkpt lat="44.46471" lon="4.72971">
        <ele>222.64</ele>
        <time>2022-01-16T13:46:23Z</time>
      </trkpt>
      <trkpt lat="44.46492" lon="4.72975">
        <ele>222.78</ele>
        <time>2022-01-16T13:46:43Z</time>
      </trkpt>
      <trkpt lat="44.46512" lon="4.72979">
        <ele>221.3</ele>
        <time>2022-01-16T13:47:02Z</time>
      </trkpt>
      <trkpt lat="44.46526" lon="4.72979">
        <ele>221.36</ele>
        <time>2022-01-16T13:47:16Z</time>
      </trkpt>
      <trkpt lat="44.46539" lon="4.72985">
        <ele>219.78</ele>
        <time>2022-01-16T13:47:29Z</time>
      </trkpt>
      <trkpt lat="44.46549" lon="4.72985">
        <ele>219.72</ele>
        <time>2022-01-16T13:47:44Z</time>
      </trkpt>
      <trkpt lat="44.46552" lon="4.72987">
        <ele>219.64</ele>
        <time>2022-01-16T13:47:47Z</time>
      </trkpt>
      <trkpt lat="44.46577" lon="4.72992">
        <ele>219.66</ele>
        <time>2022-01-16T13:48:09Z</time>
      </trkpt>
      <trkpt lat="44.46585" lon="4.72993">
        <ele>218.18</ele>
        <time>2022-01-16T13:48:17Z</time>
      </trkpt>
      <trkpt lat="44.46594" lon="4.72992">
        <ele>219.4</ele>
        <time>2022-01-16T13:48:25Z</time>
      </trkpt>
      <trkpt lat="44.46608" lon="4.72985">
        <ele>218.98</ele>
        <time>2022-01-16T13:48:38Z</time>
      </trkpt>
      <trkpt lat="44.46617" lon="4.72983">
        <ele>218.7</ele>
        <time>2022-01-16T13:48:46Z</time>
      </trkpt>
      <trkpt lat="44.46624" lon="4.72983">
        <ele>218.26</ele>
        <time>2022-01-16T13:48:53Z</time>
      </trkpt>
      <trkpt lat="44.46631" lon="4.72982">
        <ele>219.63</ele>
        <time>2022-01-16T13:49:00Z</time>
      </trkpt>
      <trkpt lat="44.46643" lon="4.72979">
        <ele>217.29</ele>
        <time>2022-01-16T13:49:14Z</time>
      </trkpt>
      <trkpt lat="44.46654" lon="4.72981">
        <ele>220.45</ele>
        <time>2022-01-16T13:49:25Z</time>
      </trkpt>
      <trkpt lat="44.46665" lon="4.72979">
        <ele>218.55</ele>
        <time>2022-01-16T13:49:38Z</time>
      </trkpt>
      <trkpt lat="44.46684" lon="4.72967">
        <ele>219.93</ele>
        <time>2022-01-16T13:49:57Z</time>
      </trkpt>
      <trkpt lat="44.46697" lon="4.72961">
        <ele>220.55</ele>
        <time>2022-01-16T13:50:12Z</time>
      </trkpt>
      <trkpt lat="44.46717" lon="4.72951">
        <ele>221.17</ele>
        <time>2022-01-16T13:50:34Z</time>
      </trkpt>
      <trkpt lat="44.46733" lon="4.72948">
        <ele>220.97</ele>
        <time>2022-01-16T13:50:51Z</time>
      </trkpt>
      <trkpt lat="44.46754" lon="4.72944">
        <ele>222.04</ele>
        <time>2022-01-16T13:51:11Z</time>
      </trkpt>
      <trkpt lat="44.46769" lon="4.72941">
        <ele>221.3</ele>
        <time>2022-01-16T13:51:24Z</time>
      </trkpt>
      <trkpt lat="44.46773" lon="4.72941">
        <ele>222.56</ele>
        <time>2022-01-16T13:51:28Z</time>
      </trkpt>
      <trkpt lat="44.46785" lon="4.72946">
        <ele>223.43</ele>
        <time>2022-01-16T13:51:40Z</time>
      </trkpt>
      <trkpt lat="44.46806" lon="4.72946">
        <ele>223.93</ele>
        <time>2022-01-16T13:51:58Z</time>
      </trkpt>
      <trkpt lat="44.4682" lon="4.72945">
        <ele>223.66</ele>
        <time>2022-01-16T13:52:12Z</time>
      </trkpt>
      <trkpt lat="44.4683" lon="4.72944">
        <ele>223.98</ele>
        <time>2022-01-16T13:52:24Z</time>
      </trkpt>
      <trkpt lat="44.46845" lon="4.72939">
        <ele>225.15</ele>
        <time>2022-01-16T13:52:39Z</time>
      </trkpt>
      <trkpt lat="44.46865" lon="4.72939">
        <ele>224.96</ele>
        <time>2022-01-16T13:53:00Z</time>
      </trkpt>
      <trkpt lat="44.46878" lon="4.72936">
        <ele>225.34</ele>
        <time>2022-01-16T13:53:16Z</time>
      </trkpt>
      <trkpt lat="44.46887" lon="4.72934">
        <ele>225.42</ele>
        <time>2022-01-16T13:53:30Z</time>
      </trkpt>
      <trkpt lat="44.46901" lon="4.72929">
        <ele>225.63</ele>
        <time>2022-01-16T13:53:44Z</time>
      </trkpt>
      <trkpt lat="44.46915" lon="4.7292">
        <ele>225.5</ele>
        <time>2022-01-16T13:53:59Z</time>
      </trkpt>
      <trkpt lat="44.46928" lon="4.72907">
        <ele>223.21</ele>
        <time>2022-01-16T13:54:17Z</time>
      </trkpt>
      <trkpt lat="44.46942" lon="4.72889">
        <ele>223.96</ele>
        <time>2022-01-16T13:54:38Z</time>
      </trkpt>
      <trkpt lat="44.46945" lon="4.72886">
        <ele>223.92</ele>
        <time>2022-01-16T13:54:40Z</time>
      </trkpt>
      <trkpt lat="44.46961" lon="4.72869">
        <ele>223.75</ele>
        <time>2022-01-16T13:55:01Z</time>
      </trkpt>
      <trkpt lat="44.46977" lon="4.72853">
        <ele>224.73</ele>
        <time>2022-01-16T13:55:21Z</time>
      </trkpt>
      <trkpt lat="44.47001" lon="4.72843">
        <ele>225.54</ele>
        <time>2022-01-16T13:55:44Z</time>
      </trkpt>
      <trkpt lat="44.47017" lon="4.72841">
        <ele>226.24</ele>
        <time>2022-01-16T13:56:03Z</time>
      </trkpt>
      <trkpt lat="44.47037" lon="4.7284">
        <ele>228.35</ele>
        <time>2022-01-16T13:56:20Z</time>
      </trkpt>
      <trkpt lat="44.47044" lon="4.72839">
        <ele>227.91</ele>
        <time>2022-01-16T13:56:33Z</time>
      </trkpt>
      <trkpt lat="44.47058" lon="4.72838">
        <ele>228.15</ele>
        <time>2022-01-16T13:56:45Z</time>
      </trkpt>
      <trkpt lat="44.47061" lon="4.72832">
        <ele>227.8</ele>
        <time>2022-01-16T13:56:59Z</time>
      </trkpt>
      <trkpt lat="44.47053" lon="4.72831">
        <ele>228.13</ele>
        <time>2022-01-16T13:57:07Z</time>
      </trkpt>
      <trkpt lat="44.47039" lon="4.72824">
        <ele>229.38</ele>
        <time>2022-01-16T13:57:22Z</time>
      </trkpt>
      <trkpt lat="44.47033" lon="4.7282">
        <ele>229.69</ele>
        <time>2022-01-16T13:57:31Z</time>
      </trkpt>
      <trkpt lat="44.4703" lon="4.72813">
        <ele>230.75</ele>
        <time>2022-01-16T13:57:37Z</time>
      </trkpt>
      <trkpt lat="44.47029" lon="4.72804">
        <ele>229.45</ele>
        <time>2022-01-16T13:57:45Z</time>
      </trkpt>
      <trkpt lat="44.47024" lon="4.72794">
        <ele>232.06</ele>
        <time>2022-01-16T13:57:57Z</time>
      </trkpt>
      <trkpt lat="44.47025" lon="4.72783">
        <ele>232.79</ele>
        <time>2022-01-16T13:58:11Z</time>
      </trkpt>
      <trkpt lat="44.47024" lon="4.72779">
        <ele>232.91</ele>
        <time>2022-01-16T13:58:15Z</time>
      </trkpt>
      <trkpt lat="44.47019" lon="4.72771">
        <ele>232.92</ele>
        <time>2022-01-16T13:58:23Z</time>
      </trkpt>
      <trkpt lat="44.47008" lon="4.72766">
        <ele>234.82</ele>
        <time>2022-01-16T13:58:34Z</time>
      </trkpt>
      <trkpt lat="44.46993" lon="4.72767">
        <ele>236.25</ele>
        <time>2022-01-16T13:58:47Z</time>
      </trkpt>
      <trkpt lat="44.46975" lon="4.72772">
        <ele>238.71</ele>
        <time>2022-01-16T13:59:08Z</time>
      </trkpt>
      <trkpt lat="44.4697" lon="4.72775">
        <ele>239.12</ele>
        <time>2022-01-16T13:59:13Z</time>
      </trkpt>
      <trkpt lat="44.46959" lon="4.72778">
        <ele>240.02</ele>
        <time>2022-01-16T13:59:23Z</time>
      </trkpt>
      <trkpt lat="44.46954" lon="4.72779">
        <ele>240.11</ele>
        <time>2022-01-16T13:59:27Z</time>
      </trkpt>
      <trkpt lat="44.46937" lon="4.72785">
        <ele>242.52</ele>
        <time>2022-01-16T13:59:45Z</time>
      </trkpt>
      <trkpt lat="44.46932" lon="4.72785">
        <ele>243.45</ele>
        <time>2022-01-16T13:59:50Z</time>
      </trkpt>
      <trkpt lat="44.46916" lon="4.72779">
        <ele>244.97</ele>
        <time>2022-01-16T14:00:11Z</time>
      </trkpt>
      <trkpt lat="44.46896" lon="4.72771">
        <ele>245.31</ele>
        <time>2022-01-16T14:00:32Z</time>
      </trkpt>
      <trkpt lat="44.46878" lon="4.72767">
        <ele>246.76</ele>
        <time>2022-01-16T14:00:47Z</time>
      </trkpt>
      <trkpt lat="44.46869" lon="4.72763">
        <ele>246.72</ele>
        <time>2022-01-16T14:00:57Z</time>
      </trkpt>
      <trkpt lat="44.46856" lon="4.72761">
        <ele>248.3</ele>
        <time>2022-01-16T14:01:12Z</time>
      </trkpt>
      <trkpt lat="44.46847" lon="4.72762">
        <ele>248.09</ele>
        <time>2022-01-16T14:01:21Z</time>
      </trkpt>
      <trkpt lat="44.46839" lon="4.72763">
        <ele>250.16</ele>
        <time>2022-01-16T14:01:27Z</time>
      </trkpt>
      <trkpt lat="44.46829" lon="4.72763">
        <ele>251.2</ele>
        <time>2022-01-16T14:01:35Z</time>
      </trkpt>
      <trkpt lat="44.46821" lon="4.72763">
        <ele>251.97</ele>
        <time>2022-01-16T14:01:49Z</time>
      </trkpt>
      <trkpt lat="44.46819" lon="4.72764">
        <ele>251.79</ele>
        <time>2022-01-16T14:01:58Z</time>
      </trkpt>
      <trkpt lat="44.46817" lon="4.72764">
        <ele>251.22</ele>
        <time>2022-01-16T14:02:00Z</time>
      </trkpt>
      <trkpt lat="44.468" lon="4.72767">
        <ele>253.7</ele>
        <time>2022-01-16T14:02:15Z</time>
      </trkpt>
      <trkpt lat="44.46788" lon="4.72769">
        <ele>254.29</ele>
        <time>2022-01-16T14:02:27Z</time>
      </trkpt>
      <trkpt lat="44.46786" lon="4.7277">
        <ele>254.65</ele>
        <time>2022-01-16T14:02:29Z</time>
      </trkpt>
      <trkpt lat="44.46778" lon="4.72773">
        <ele>254.78</ele>
        <time>2022-01-16T14:02:36Z</time>
      </trkpt>
      <trkpt lat="44.46762" lon="4.72775">
        <ele>256.39</ele>
        <time>2022-01-16T14:02:51Z</time>
      </trkpt>
      <trkpt lat="44.46746" lon="4.72774">
        <ele>257.65</ele>
        <time>2022-01-16T14:03:08Z</time>
      </trkpt>
      <trkpt lat="44.46735" lon="4.72774">
        <ele>258.35</ele>
        <time>2022-01-16T14:03:20Z</time>
      </trkpt>
      <trkpt lat="44.46729" lon="4.72774">
        <ele>259.27</ele>
        <time>2022-01-16T14:03:27Z</time>
      </trkpt>
      <trkpt lat="44.46708" lon="4.72774">
        <ele>261.48</ele>
        <time>2022-01-16T14:03:48Z</time>
      </trkpt>
      <trkpt lat="44.46694" lon="4.72773">
        <ele>263.33</ele>
        <time>2022-01-16T14:04:03Z</time>
      </trkpt>
      <trkpt lat="44.46679" lon="4.72768">
        <ele>263.9</ele>
        <time>2022-01-16T14:04:19Z</time>
      </trkpt>
      <trkpt lat="44.46674" lon="4.72767">
        <ele>264.41</ele>
        <time>2022-01-16T14:04:24Z</time>
      </trkpt>
      <trkpt lat="44.46658" lon="4.72764">
        <ele>265.63</ele>
        <time>2022-01-16T14:04:40Z</time>
      </trkpt>
      <trkpt lat="44.46641" lon="4.72765">
        <ele>267.64</ele>
        <time>2022-01-16T14:04:57Z</time>
      </trkpt>
      <trkpt lat="44.46624" lon="4.72765">
        <ele>269.54</ele>
        <time>2022-01-16T14:05:14Z</time>
      </trkpt>
      <trkpt lat="44.46612" lon="4.72767">
        <ele>271.75</ele>
        <time>2022-01-16T14:05:26Z</time>
      </trkpt>
      <trkpt lat="44.46598" lon="4.72768">
        <ele>272.41</ele>
        <time>2022-01-16T14:05:40Z</time>
      </trkpt>
      <trkpt lat="44.46591" lon="4.72769">
        <ele>272.84</ele>
        <time>2022-01-16T14:05:47Z</time>
      </trkpt>
      <trkpt lat="44.46575" lon="4.72767">
        <ele>274.42</ele>
        <time>2022-01-16T14:06:02Z</time>
      </trkpt>
      <trkpt lat="44.46574" lon="4.72768">
        <ele>274.62</ele>
        <time>2022-01-16T14:06:03Z</time>
      </trkpt>
      <trkpt lat="44.46564" lon="4.72765">
        <ele>275.28</ele>
        <time>2022-01-16T14:06:13Z</time>
      </trkpt>
      <trkpt lat="44.46556" lon="4.72763">
        <ele>275.69</ele>
        <time>2022-01-16T14:06:21Z</time>
      </trkpt>
      <trkpt lat="44.4655" lon="4.72763">
        <ele>277.08</ele>
        <time>2022-01-16T14:06:27Z</time>
      </trkpt>
      <trkpt lat="44.46537" lon="4.7276">
        <ele>278.67</ele>
        <time>2022-01-16T14:06:41Z</time>
      </trkpt>
      <trkpt lat="44.46534" lon="4.72759">
        <ele>279.39</ele>
        <time>2022-01-16T14:06:44Z</time>
      </trkpt>
      <trkpt lat="44.46531" lon="4.72759">
        <ele>279.62</ele>
        <time>2022-01-16T14:06:47Z</time>
      </trkpt>
      <trkpt lat="44.46529" lon="4.72757">
        <ele>279.99</ele>
        <time>2022-01-16T14:06:49Z</time>
      </trkpt>
      <trkpt lat="44.46528" lon="4.72751">
        <ele>279.74</ele>
        <time>2022-01-16T14:06:54Z</time>
      </trkpt>
      <trkpt lat="44.46529" lon="4.72749">
        <ele>281.17</ele>
        <time>2022-01-16T14:07:08Z</time>
      </trkpt>
      <trkpt lat="44.46533" lon="4.72746">
        <ele>280.89</ele>
        <time>2022-01-16T14:07:15Z</time>
      </trkpt>
      <trkpt lat="44.46535" lon="4.72746">
        <ele>281.42</ele>
        <time>2022-01-16T14:07:17Z</time>
      </trkpt>
      <trkpt lat="44.4655" lon="4.72745">
        <ele>281.52</ele>
        <time>2022-01-16T14:07:31Z</time>
      </trkpt>
      <trkpt lat="44.46563" lon="4.72741">
        <ele>281.27</ele>
        <time>2022-01-16T14:07:44Z</time>
      </trkpt>
      <trkpt lat="44.46574" lon="4.72736">
        <ele>280.8</ele>
        <time>2022-01-16T14:07:57Z</time>
      </trkpt>
      <trkpt lat="44.46581" lon="4.72731">
        <ele>281.43</ele>
        <time>2022-01-16T14:08:08Z</time>
      </trkpt>
      <trkpt lat="44.46595" lon="4.72724">
        <ele>282.12</ele>
        <time>2022-01-16T14:08:25Z</time>
      </trkpt>
      <trkpt lat="44.466" lon="4.72722">
        <ele>283.09</ele>
        <time>2022-01-16T14:08:29Z</time>
      </trkpt>
      <trkpt lat="44.46612" lon="4.72717">
        <ele>282.39</ele>
        <time>2022-01-16T14:08:45Z</time>
      </trkpt>
      <trkpt lat="44.46625" lon="4.7271">
        <ele>280.75</ele>
        <time>2022-01-16T14:08:58Z</time>
      </trkpt>
      <trkpt lat="44.46631" lon="4.72707">
        <ele>283.95</ele>
        <time>2022-01-16T14:09:04Z</time>
      </trkpt>
      <trkpt lat="44.46639" lon="4.72703">
        <ele>284.31</ele>
        <time>2022-01-16T14:09:15Z</time>
      </trkpt>
      <trkpt lat="44.46648" lon="4.72699">
        <ele>284.28</ele>
        <time>2022-01-16T14:09:22Z</time>
      </trkpt>
      <trkpt lat="44.46657" lon="4.72695">
        <ele>285.43</ele>
        <time>2022-01-16T14:09:30Z</time>
      </trkpt>
      <trkpt lat="44.46661" lon="4.72694">
        <ele>285.74</ele>
        <time>2022-01-16T14:09:33Z</time>
      </trkpt>
      <trkpt lat="44.46678" lon="4.72686">
        <ele>286.68</ele>
        <time>2022-01-16T14:09:49Z</time>
      </trkpt>
      <trkpt lat="44.46681" lon="4.72683">
        <ele>286.41</ele>
        <time>2022-01-16T14:09:53Z</time>
      </trkpt>
      <trkpt lat="44.46694" lon="4.72678">
        <ele>286.99</ele>
        <time>2022-01-16T14:10:07Z</time>
      </trkpt>
      <trkpt lat="44.46705" lon="4.72672">
        <ele>288.79</ele>
        <time>2022-01-16T14:10:18Z</time>
      </trkpt>
      <trkpt lat="44.46708" lon="4.72669">
        <ele>288.16</ele>
        <time>2022-01-16T14:10:22Z</time>
      </trkpt>
      <trkpt lat="44.46711" lon="4.72666">
        <ele>290.11</ele>
        <time>2022-01-16T14:10:25Z</time>
      </trkpt>
      <trkpt lat="44.46718" lon="4.7266">
        <ele>289.71</ele>
        <time>2022-01-16T14:10:33Z</time>
      </trkpt>
      <trkpt lat="44.46728" lon="4.72652">
        <ele>291.65</ele>
        <time>2022-01-16T14:10:44Z</time>
      </trkpt>
      <trkpt lat="44.46733" lon="4.72647">
        <ele>291.68</ele>
        <time>2022-01-16T14:10:50Z</time>
      </trkpt>
      <trkpt lat="44.46739" lon="4.72643">
        <ele>291.19</ele>
        <time>2022-01-16T14:10:56Z</time>
      </trkpt>
      <trkpt lat="44.46741" lon="4.72641">
        <ele>292.61</ele>
        <time>2022-01-16T14:10:58Z</time>
      </trkpt>
      <trkpt lat="44.46742" lon="4.7264">
        <ele>290.66</ele>
        <time>2022-01-16T14:11:00Z</time>
      </trkpt>
      <trkpt lat="44.46748" lon="4.72633">
        <ele>293.66</ele>
        <time>2022-01-16T14:11:07Z</time>
      </trkpt>
      <trkpt lat="44.46751" lon="4.72629">
        <ele>293.31</ele>
        <time>2022-01-16T14:11:11Z</time>
      </trkpt>
      <trkpt lat="44.46753" lon="4.72624">
        <ele>295.38</ele>
        <time>2022-01-16T14:11:15Z</time>
      </trkpt>
      <trkpt lat="44.4676" lon="4.72612">
        <ele>295.32</ele>
        <time>2022-01-16T14:11:24Z</time>
      </trkpt>
      <trkpt lat="44.46765" lon="4.72601">
        <ele>295.85</ele>
        <time>2022-01-16T14:11:33Z</time>
      </trkpt>
      <trkpt lat="44.46772" lon="4.72584">
        <ele>296.67</ele>
        <time>2022-01-16T14:11:46Z</time>
      </trkpt>
      <trkpt lat="44.46776" lon="4.72574">
        <ele>298.04</ele>
        <time>2022-01-16T14:11:58Z</time>
      </trkpt>
      <trkpt lat="44.46779" lon="4.72567">
        <ele>297.78</ele>
        <time>2022-01-16T14:12:04Z</time>
      </trkpt>
      <trkpt lat="44.46778" lon="4.72556">
        <ele>298.3</ele>
        <time>2022-01-16T14:12:23Z</time>
      </trkpt>
      <trkpt lat="44.46781" lon="4.72551">
        <ele>298.49</ele>
        <time>2022-01-16T14:12:34Z</time>
      </trkpt>
      <trkpt lat="44.4679" lon="4.72537">
        <ele>298.25</ele>
        <time>2022-01-16T14:12:47Z</time>
      </trkpt>
      <trkpt lat="44.468" lon="4.72522">
        <ele>298.77</ele>
        <time>2022-01-16T14:13:02Z</time>
      </trkpt>
      <trkpt lat="44.46807" lon="4.72513">
        <ele>299.03</ele>
        <time>2022-01-16T14:13:11Z</time>
      </trkpt>
      <trkpt lat="44.46822" lon="4.72498">
        <ele>298.91</ele>
        <time>2022-01-16T14:13:26Z</time>
      </trkpt>
      <trkpt lat="44.46827" lon="4.72495">
        <ele>299.58</ele>
        <time>2022-01-16T14:13:32Z</time>
      </trkpt>
      <trkpt lat="44.46842" lon="4.72487">
        <ele>299.13</ele>
        <time>2022-01-16T14:13:47Z</time>
      </trkpt>
      <trkpt lat="44.46855" lon="4.7248">
        <ele>299.64</ele>
        <time>2022-01-16T14:14:01Z</time>
      </trkpt>
      <trkpt lat="44.46873" lon="4.72467">
        <ele>299.66</ele>
        <time>2022-01-16T14:14:18Z</time>
      </trkpt>
      <trkpt lat="44.46891" lon="4.72458">
        <ele>300.62</ele>
        <time>2022-01-16T14:14:35Z</time>
      </trkpt>
      <trkpt lat="44.46897" lon="4.72449">
        <ele>300.5</ele>
        <time>2022-01-16T14:14:48Z</time>
      </trkpt>
      <trkpt lat="44.46898" lon="4.72449">
        <ele>300.62</ele>
        <time>2022-01-16T14:14:49Z</time>
      </trkpt>
      <trkpt lat="44.46904" lon="4.72445">
        <ele>301.54</ele>
        <time>2022-01-16T14:14:55Z</time>
      </trkpt>
      <trkpt lat="44.46921" lon="4.72437">
        <ele>302.09</ele>
        <time>2022-01-16T14:15:12Z</time>
      </trkpt>
      <trkpt lat="44.46925" lon="4.72437">
        <ele>303.68</ele>
        <time>2022-01-16T14:15:15Z</time>
      </trkpt>
      <trkpt lat="44.46927" lon="4.72435">
        <ele>303.65</ele>
        <time>2022-01-16T14:15:20Z</time>
      </trkpt>
      <trkpt lat="44.46931" lon="4.72433">
        <ele>305.22</ele>
        <time>2022-01-16T14:15:23Z</time>
      </trkpt>
      <trkpt lat="44.46935" lon="4.7243">
        <ele>303.51</ele>
        <time>2022-01-16T14:15:27Z</time>
      </trkpt>
      <trkpt lat="44.46939" lon="4.72429">
        <ele>304.23</ele>
        <time>2022-01-16T14:15:34Z</time>
      </trkpt>
      <trkpt lat="44.46945" lon="4.72431">
        <ele>305.28</ele>
        <time>2022-01-16T14:15:40Z</time>
      </trkpt>
      <trkpt lat="44.46947" lon="4.72432">
        <ele>306.02</ele>
        <time>2022-01-16T14:15:42Z</time>
      </trkpt>
      <trkpt lat="44.4696" lon="4.72436">
        <ele>308.72</ele>
        <time>2022-01-16T14:15:58Z</time>
      </trkpt>
      <trkpt lat="44.46962" lon="4.72436">
        <ele>308.1</ele>
        <time>2022-01-16T14:16:05Z</time>
      </trkpt>
      <trkpt lat="44.46966" lon="4.72436">
        <ele>309.07</ele>
        <time>2022-01-16T14:16:09Z</time>
      </trkpt>
      <trkpt lat="44.46977" lon="4.72437">
        <ele>310.28</ele>
        <time>2022-01-16T14:16:20Z</time>
      </trkpt>
      <trkpt lat="44.46995" lon="4.72427">
        <ele>311.42</ele>
        <time>2022-01-16T14:16:39Z</time>
      </trkpt>
      <trkpt lat="44.47012" lon="4.72419">
        <ele>312.18</ele>
        <time>2022-01-16T14:16:56Z</time>
      </trkpt>
      <trkpt lat="44.47015" lon="4.7242">
        <ele>312.24</ele>
        <time>2022-01-16T14:17:02Z</time>
      </trkpt>
      <trkpt lat="44.47021" lon="4.72421">
        <ele>310.64</ele>
        <time>2022-01-16T14:17:07Z</time>
      </trkpt>
      <trkpt lat="44.47027" lon="4.72421">
        <ele>311.92</ele>
        <time>2022-01-16T14:17:13Z</time>
      </trkpt>
      <trkpt lat="44.47032" lon="4.7242">
        <ele>311.03</ele>
        <time>2022-01-16T14:17:24Z</time>
      </trkpt>
      <trkpt lat="44.4704" lon="4.72421">
        <ele>311.39</ele>
        <time>2022-01-16T14:17:35Z</time>
      </trkpt>
      <trkpt lat="44.47043" lon="4.72421">
        <ele>310.89</ele>
        <time>2022-01-16T14:17:38Z</time>
      </trkpt>
      <trkpt lat="44.47052" lon="4.72424">
        <ele>310.99</ele>
        <time>2022-01-16T14:17:47Z</time>
      </trkpt>
      <trkpt lat="44.47057" lon="4.72424">
        <ele>311.39</ele>
        <time>2022-01-16T14:17:51Z</time>
      </trkpt>
      <trkpt lat="44.47066" lon="4.72416">
        <ele>314.71</ele>
        <time>2022-01-16T14:18:02Z</time>
      </trkpt>
      <trkpt lat="44.47078" lon="4.72401">
        <ele>316.64</ele>
        <time>2022-01-16T14:18:19Z</time>
      </trkpt>
      <trkpt lat="44.4709" lon="4.72388">
        <ele>319.65</ele>
        <time>2022-01-16T14:18:34Z</time>
      </trkpt>
      <trkpt lat="44.47104" lon="4.7238">
        <ele>322.23</ele>
        <time>2022-01-16T14:18:49Z</time>
      </trkpt>
      <trkpt lat="44.47113" lon="4.72374">
        <ele>325.43</ele>
        <time>2022-01-16T14:19:04Z</time>
      </trkpt>
      <trkpt lat="44.47114" lon="4.72373">
        <ele>326.04</ele>
        <time>2022-01-16T14:19:06Z</time>
      </trkpt>
      <trkpt lat="44.47126" lon="4.72376">
        <ele>329.17</ele>
        <time>2022-01-16T14:19:21Z</time>
      </trkpt>
      <trkpt lat="44.47141" lon="4.72378">
        <ele>332.27</ele>
        <time>2022-01-16T14:19:39Z</time>
      </trkpt>
      <trkpt lat="44.47154" lon="4.72374">
        <ele>333.7</ele>
        <time>2022-01-16T14:19:54Z</time>
      </trkpt>
      <trkpt lat="44.47158" lon="4.72374">
        <ele>333.66</ele>
        <time>2022-01-16T14:19:58Z</time>
      </trkpt>
      <trkpt lat="44.47165" lon="4.72375">
        <ele>335</ele>
        <time>2022-01-16T14:20:06Z</time>
      </trkpt>
      <trkpt lat="44.47167" lon="4.72376">
        <ele>334.84</ele>
        <time>2022-01-16T14:20:08Z</time>
      </trkpt>
      <trkpt lat="44.47174" lon="4.72378">
        <ele>335.81</ele>
        <time>2022-01-16T14:20:22Z</time>
      </trkpt>
      <trkpt lat="44.47174" lon="4.72378">
        <ele>339.65</ele>
        <time>2022-01-16T14:20:36Z</time>
      </trkpt>
      <trkpt lat="44.47176" lon="4.72378">
        <ele>337.09</ele>
        <time>2022-01-16T14:20:40Z</time>
      </trkpt>
      <trkpt lat="44.47178" lon="4.72378">
        <ele>338.18</ele>
        <time>2022-01-16T14:20:43Z</time>
      </trkpt>
      <trkpt lat="44.47179" lon="4.72379">
        <ele>335.94</ele>
        <time>2022-01-16T14:20:57Z</time>
      </trkpt>
      <trkpt lat="44.47178" lon="4.72378">
        <ele>336.29</ele>
        <time>2022-01-16T14:20:58Z</time>
      </trkpt>
      <trkpt lat="44.47178" lon="4.72374">
        <ele>334.3</ele>
        <time>2022-01-16T14:21:14Z</time>
      </trkpt>
      <trkpt lat="44.47178" lon="4.72374">
        <ele>337.12</ele>
        <time>2022-01-16T14:21:24Z</time>
      </trkpt>
      <trkpt lat="44.47177" lon="4.72375">
        <ele>333.55</ele>
        <time>2022-01-16T14:21:31Z</time>
      </trkpt>
      <trkpt lat="44.47177" lon="4.72375">
        <ele>333.55</ele>
        <time>2022-01-16T14:21:32Z</time>
      </trkpt>
      <trkpt lat="44.47177" lon="4.72375">
        <ele>337.52</ele>
        <time>2022-01-16T14:21:34Z</time>
      </trkpt>
      <trkpt lat="44.47177" lon="4.72375">
        <ele>337.7</ele>
        <time>2022-01-16T14:21:35Z</time>
      </trkpt>
      <trkpt lat="44.47178" lon="4.72375">
        <ele>335.95</ele>
        <time>2022-01-16T14:22:02Z</time>
      </trkpt>
      <trkpt lat="44.47178" lon="4.72375">
        <ele>336.91</ele>
        <time>2022-01-16T14:22:35Z</time>
      </trkpt>
      <trkpt lat="44.47178" lon="4.72375">
        <ele>336.41</ele>
        <time>2022-01-16T14:22:45Z</time>
      </trkpt>
      <trkpt lat="44.47178" lon="4.72375">
        <ele>336.66</ele>
        <time>2022-01-16T14:23:21Z</time>
      </trkpt>
      <trkpt lat="44.47179" lon="4.72375">
        <ele>336.8</ele>
        <time>2022-01-16T14:23:58Z</time>
      </trkpt>
      <trkpt lat="44.47177" lon="4.72377">
        <ele>333.35</ele>
        <time>2022-01-16T14:24:05Z</time>
      </trkpt>
      <trkpt lat="44.47177" lon="4.72378">
        <ele>333.48</ele>
        <time>2022-01-16T14:24:06Z</time>
      </trkpt>
      <trkpt lat="44.47176" lon="4.72382">
        <ele>335.1</ele>
        <time>2022-01-16T14:24:14Z</time>
      </trkpt>
      <trkpt lat="44.47174" lon="4.72382">
        <ele>335.76</ele>
        <time>2022-01-16T14:24:30Z</time>
      </trkpt>
      <trkpt lat="44.47172" lon="4.72383">
        <ele>335.67</ele>
        <time>2022-01-16T14:24:48Z</time>
      </trkpt>
      <trkpt lat="44.4717" lon="4.72377">
        <ele>335.2</ele>
        <time>2022-01-16T14:25:00Z</time>
      </trkpt>
      <trkpt lat="44.47167" lon="4.72366">
        <ele>333.22</ele>
        <time>2022-01-16T14:25:16Z</time>
      </trkpt>
      <trkpt lat="44.47166" lon="4.72365">
        <ele>333.45</ele>
        <time>2022-01-16T14:25:18Z</time>
      </trkpt>
      <trkpt lat="44.47165" lon="4.7235">
        <ele>330.32</ele>
        <time>2022-01-16T14:25:28Z</time>
      </trkpt>
      <trkpt lat="44.47165" lon="4.72346">
        <ele>328.6</ele>
        <time>2022-01-16T14:25:33Z</time>
      </trkpt>
      <trkpt lat="44.47166" lon="4.7235">
        <ele>330.77</ele>
        <time>2022-01-16T14:25:38Z</time>
      </trkpt>
      <trkpt lat="44.47167" lon="4.72364">
        <ele>333.98</ele>
        <time>2022-01-16T14:25:51Z</time>
      </trkpt>
      <trkpt lat="44.47168" lon="4.72366">
        <ele>335.25</ele>
        <time>2022-01-16T14:25:54Z</time>
      </trkpt>
      <trkpt lat="44.47167" lon="4.72369">
        <ele>336.51</ele>
        <time>2022-01-16T14:25:59Z</time>
      </trkpt>
      <trkpt lat="44.47166" lon="4.7237">
        <ele>336.52</ele>
        <time>2022-01-16T14:26:00Z</time>
      </trkpt>
      <trkpt lat="44.47156" lon="4.72378">
        <ele>335.62</ele>
        <time>2022-01-16T14:26:16Z</time>
      </trkpt>
      <trkpt lat="44.47154" lon="4.72378">
        <ele>335.49</ele>
        <time>2022-01-16T14:26:18Z</time>
      </trkpt>
      <trkpt lat="44.47146" lon="4.72378">
        <ele>332.88</ele>
        <time>2022-01-16T14:26:32Z</time>
      </trkpt>
      <trkpt lat="44.47146" lon="4.72376">
        <ele>332.65</ele>
        <time>2022-01-16T14:26:34Z</time>
      </trkpt>
      <trkpt lat="44.47144" lon="4.72361">
        <ele>329.14</ele>
        <time>2022-01-16T14:26:46Z</time>
      </trkpt>
      <trkpt lat="44.47145" lon="4.72369">
        <ele>330.21</ele>
        <time>2022-01-16T14:26:59Z</time>
      </trkpt>
      <trkpt lat="44.47145" lon="4.72376">
        <ele>332.24</ele>
        <time>2022-01-16T14:27:04Z</time>
      </trkpt>
      <trkpt lat="44.4714" lon="4.72381">
        <ele>332.94</ele>
        <time>2022-01-16T14:27:10Z</time>
      </trkpt>
      <trkpt lat="44.47129" lon="4.72382">
        <ele>329.9</ele>
        <time>2022-01-16T14:27:23Z</time>
      </trkpt>
      <trkpt lat="44.47124" lon="4.72379">
        <ele>326.64</ele>
        <time>2022-01-16T14:27:31Z</time>
      </trkpt>
      <trkpt lat="44.47117" lon="4.72379">
        <ele>324.93</ele>
        <time>2022-01-16T14:27:43Z</time>
      </trkpt>
      <trkpt lat="44.47113" lon="4.72377">
        <ele>324.08</ele>
        <time>2022-01-16T14:27:53Z</time>
      </trkpt>
      <trkpt lat="44.47112" lon="4.72379">
        <ele>323.5</ele>
        <time>2022-01-16T14:27:55Z</time>
      </trkpt>
      <trkpt lat="44.47109" lon="4.72382">
        <ele>322.44</ele>
        <time>2022-01-16T14:27:59Z</time>
      </trkpt>
      <trkpt lat="44.47102" lon="4.72386">
        <ele>319.82</ele>
        <time>2022-01-16T14:28:08Z</time>
      </trkpt>
      <trkpt lat="44.47098" lon="4.72389">
        <ele>319.79</ele>
        <time>2022-01-16T14:28:12Z</time>
      </trkpt>
      <trkpt lat="44.47092" lon="4.72394">
        <ele>318.57</ele>
        <time>2022-01-16T14:28:25Z</time>
      </trkpt>
      <trkpt lat="44.47089" lon="4.72396">
        <ele>317.79</ele>
        <time>2022-01-16T14:28:28Z</time>
      </trkpt>
      <trkpt lat="44.47087" lon="4.72396">
        <ele>317.36</ele>
        <time>2022-01-16T14:28:46Z</time>
      </trkpt>
      <trkpt lat="44.47087" lon="4.724">
        <ele>316.77</ele>
        <time>2022-01-16T14:28:57Z</time>
      </trkpt>
      <trkpt lat="44.47076" lon="4.72409">
        <ele>314.69</ele>
        <time>2022-01-16T14:29:08Z</time>
      </trkpt>
      <trkpt lat="44.47075" lon="4.7241">
        <ele>314.69</ele>
        <time>2022-01-16T14:29:09Z</time>
      </trkpt>
      <trkpt lat="44.47072" lon="4.72412">
        <ele>313.99</ele>
        <time>2022-01-16T14:29:13Z</time>
      </trkpt>
      <trkpt lat="44.47063" lon="4.72423">
        <ele>311.22</ele>
        <time>2022-01-16T14:29:27Z</time>
      </trkpt>
      <trkpt lat="44.47062" lon="4.72425">
        <ele>311.21</ele>
        <time>2022-01-16T14:29:30Z</time>
      </trkpt>
      <trkpt lat="44.47056" lon="4.72425">
        <ele>310.87</ele>
        <time>2022-01-16T14:29:38Z</time>
      </trkpt>
      <trkpt lat="44.47052" lon="4.72422">
        <ele>311.14</ele>
        <time>2022-01-16T14:29:42Z</time>
      </trkpt>
      <trkpt lat="44.47033" lon="4.72419">
        <ele>310.82</ele>
        <time>2022-01-16T14:29:57Z</time>
      </trkpt>
      <trkpt lat="44.47022" lon="4.7242">
        <ele>310.82</ele>
        <time>2022-01-16T14:30:06Z</time>
      </trkpt>
      <trkpt lat="44.47016" lon="4.72417">
        <ele>312.79</ele>
        <time>2022-01-16T14:30:12Z</time>
      </trkpt>
      <trkpt lat="44.47013" lon="4.72417">
        <ele>312.38</ele>
        <time>2022-01-16T14:30:19Z</time>
      </trkpt>
      <trkpt lat="44.46995" lon="4.72426">
        <ele>311.64</ele>
        <time>2022-01-16T14:30:35Z</time>
      </trkpt>
      <trkpt lat="44.46988" lon="4.72428">
        <ele>310.42</ele>
        <time>2022-01-16T14:30:42Z</time>
      </trkpt>
      <trkpt lat="44.46979" lon="4.72435">
        <ele>310.19</ele>
        <time>2022-01-16T14:30:51Z</time>
      </trkpt>
      <trkpt lat="44.46964" lon="4.72437">
        <ele>309.49</ele>
        <time>2022-01-16T14:31:04Z</time>
      </trkpt>
      <trkpt lat="44.46958" lon="4.72437">
        <ele>308.93</ele>
        <time>2022-01-16T14:31:14Z</time>
      </trkpt>
      <trkpt lat="44.46953" lon="4.72435">
        <ele>307.79</ele>
        <time>2022-01-16T14:31:20Z</time>
      </trkpt>
      <trkpt lat="44.46937" lon="4.72431">
        <ele>303.98</ele>
        <time>2022-01-16T14:31:34Z</time>
      </trkpt>
      <trkpt lat="44.46933" lon="4.72432">
        <ele>303.27</ele>
        <time>2022-01-16T14:31:37Z</time>
      </trkpt>
      <trkpt lat="44.46926" lon="4.72436">
        <ele>304.66</ele>
        <time>2022-01-16T14:31:47Z</time>
      </trkpt>
      <trkpt lat="44.46917" lon="4.72438">
        <ele>302.56</ele>
        <time>2022-01-16T14:31:57Z</time>
      </trkpt>
      <trkpt lat="44.46911" lon="4.72442">
        <ele>302.28</ele>
        <time>2022-01-16T14:32:12Z</time>
      </trkpt>
      <trkpt lat="44.46908" lon="4.72443">
        <ele>302.23</ele>
        <time>2022-01-16T14:32:15Z</time>
      </trkpt>
      <trkpt lat="44.469" lon="4.72446">
        <ele>300.65</ele>
        <time>2022-01-16T14:32:22Z</time>
      </trkpt>
      <trkpt lat="44.46895" lon="4.72451">
        <ele>300.33</ele>
        <time>2022-01-16T14:32:34Z</time>
      </trkpt>
      <trkpt lat="44.46895" lon="4.72452">
        <ele>300.62</ele>
        <time>2022-01-16T14:32:35Z</time>
      </trkpt>
      <trkpt lat="44.46882" lon="4.72463">
        <ele>299.6</ele>
        <time>2022-01-16T14:32:49Z</time>
      </trkpt>
      <trkpt lat="44.46871" lon="4.72471">
        <ele>299.15</ele>
        <time>2022-01-16T14:33:02Z</time>
      </trkpt>
      <trkpt lat="44.46852" lon="4.72481">
        <ele>298.96</ele>
        <time>2022-01-16T14:33:21Z</time>
      </trkpt>
      <trkpt lat="44.46846" lon="4.72484">
        <ele>298.83</ele>
        <time>2022-01-16T14:33:26Z</time>
      </trkpt>
      <trkpt lat="44.46831" lon="4.72492">
        <ele>298.51</ele>
        <time>2022-01-16T14:33:41Z</time>
      </trkpt>
      <trkpt lat="44.46815" lon="4.72505">
        <ele>298.01</ele>
        <time>2022-01-16T14:33:58Z</time>
      </trkpt>
      <trkpt lat="44.46813" lon="4.72507">
        <ele>298.16</ele>
        <time>2022-01-16T14:34:00Z</time>
      </trkpt>
      <trkpt lat="44.468" lon="4.72528">
        <ele>298.02</ele>
        <time>2022-01-16T14:34:18Z</time>
      </trkpt>
      <trkpt lat="44.46793" lon="4.72544">
        <ele>298.45</ele>
        <time>2022-01-16T14:34:30Z</time>
      </trkpt>
      <trkpt lat="44.46791" lon="4.72546">
        <ele>297.71</ele>
        <time>2022-01-16T14:34:32Z</time>
      </trkpt>
      <trkpt lat="44.46785" lon="4.72558">
        <ele>297.2</ele>
        <time>2022-01-16T14:34:42Z</time>
      </trkpt>
      <trkpt lat="44.46779" lon="4.72569">
        <ele>297.54</ele>
        <time>2022-01-16T14:34:56Z</time>
      </trkpt>
      <trkpt lat="44.46778" lon="4.72573">
        <ele>297.78</ele>
        <time>2022-01-16T14:35:23Z</time>
      </trkpt>
      <trkpt lat="44.46777" lon="4.72576">
        <ele>297.73</ele>
        <time>2022-01-16T14:35:43Z</time>
      </trkpt>
      <trkpt lat="44.46778" lon="4.72575">
        <ele>297.19</ele>
        <time>2022-01-16T14:36:10Z</time>
      </trkpt>
      <trkpt lat="44.46777" lon="4.72577">
        <ele>298.06</ele>
        <time>2022-01-16T14:36:37Z</time>
      </trkpt>
      <trkpt lat="44.46777" lon="4.72579">
        <ele>297.67</ele>
        <time>2022-01-16T14:37:14Z</time>
      </trkpt>
      <trkpt lat="44.46775" lon="4.72583">
        <ele>297.99</ele>
        <time>2022-01-16T14:37:47Z</time>
      </trkpt>
      <trkpt lat="44.46773" lon="4.72586">
        <ele>297.33</ele>
        <time>2022-01-16T14:37:50Z</time>
      </trkpt>
      <trkpt lat="44.46772" lon="4.72592">
        <ele>296.54</ele>
        <time>2022-01-16T14:37:55Z</time>
      </trkpt>
      <trkpt lat="44.4677" lon="4.72596">
        <ele>297.13</ele>
        <time>2022-01-16T14:37:59Z</time>
      </trkpt>
      <trkpt lat="44.4677" lon="4.72597">
        <ele>297.01</ele>
        <time>2022-01-16T14:38:00Z</time>
      </trkpt>
      <trkpt lat="44.46767" lon="4.72606">
        <ele>295.7</ele>
        <time>2022-01-16T14:38:06Z</time>
      </trkpt>
      <trkpt lat="44.46766" lon="4.7261">
        <ele>294.39</ele>
        <time>2022-01-16T14:38:09Z</time>
      </trkpt>
      <trkpt lat="44.46756" lon="4.72628">
        <ele>293.38</ele>
        <time>2022-01-16T14:38:24Z</time>
      </trkpt>
      <trkpt lat="44.46742" lon="4.72647">
        <ele>290.87</ele>
        <time>2022-01-16T14:38:41Z</time>
      </trkpt>
      <trkpt lat="44.46734" lon="4.72656">
        <ele>290.21</ele>
        <time>2022-01-16T14:38:50Z</time>
      </trkpt>
      <trkpt lat="44.46729" lon="4.7266">
        <ele>288.86</ele>
        <time>2022-01-16T14:38:55Z</time>
      </trkpt>
      <trkpt lat="44.46714" lon="4.72669">
        <ele>288.81</ele>
        <time>2022-01-16T14:39:10Z</time>
      </trkpt>
      <trkpt lat="44.46697" lon="4.72681">
        <ele>286.36</ele>
        <time>2022-01-16T14:39:26Z</time>
      </trkpt>
      <trkpt lat="44.46681" lon="4.72689">
        <ele>285.66</ele>
        <time>2022-01-16T14:39:41Z</time>
      </trkpt>
      <trkpt lat="44.46661" lon="4.72698">
        <ele>284.9</ele>
        <time>2022-01-16T14:40:00Z</time>
      </trkpt>
      <trkpt lat="44.46657" lon="4.72699">
        <ele>284.54</ele>
        <time>2022-01-16T14:40:04Z</time>
      </trkpt>
      <trkpt lat="44.46641" lon="4.72709">
        <ele>283.57</ele>
        <time>2022-01-16T14:40:19Z</time>
      </trkpt>
      <trkpt lat="44.4664" lon="4.72709">
        <ele>283.56</ele>
        <time>2022-01-16T14:40:20Z</time>
      </trkpt>
      <trkpt lat="44.46637" lon="4.72711">
        <ele>283.26</ele>
        <time>2022-01-16T14:40:23Z</time>
      </trkpt>
      <trkpt lat="44.46625" lon="4.72719">
        <ele>284.34</ele>
        <time>2022-01-16T14:40:35Z</time>
      </trkpt>
      <trkpt lat="44.46604" lon="4.72729">
        <ele>283.19</ele>
        <time>2022-01-16T14:40:52Z</time>
      </trkpt>
      <trkpt lat="44.46588" lon="4.72738">
        <ele>281.41</ele>
        <time>2022-01-16T14:41:07Z</time>
      </trkpt>
      <trkpt lat="44.46586" lon="4.72738">
        <ele>282.37</ele>
        <time>2022-01-16T14:41:09Z</time>
      </trkpt>
      <trkpt lat="44.46566" lon="4.72744">
        <ele>281.35</ele>
        <time>2022-01-16T14:41:25Z</time>
      </trkpt>
      <trkpt lat="44.46544" lon="4.72749">
        <ele>280.61</ele>
        <time>2022-01-16T14:41:43Z</time>
      </trkpt>
      <trkpt lat="44.4653" lon="4.72748">
        <ele>280.06</ele>
        <time>2022-01-16T14:41:57Z</time>
      </trkpt>
      <trkpt lat="44.46518" lon="4.7275">
        <ele>280.48</ele>
        <time>2022-01-16T14:42:06Z</time>
      </trkpt>
      <trkpt lat="44.46501" lon="4.72747">
        <ele>282.29</ele>
        <time>2022-01-16T14:42:20Z</time>
      </trkpt>
      <trkpt lat="44.46492" lon="4.72744">
        <ele>282.73</ele>
        <time>2022-01-16T14:42:28Z</time>
      </trkpt>
      <trkpt lat="44.46477" lon="4.72744">
        <ele>281.1</ele>
        <time>2022-01-16T14:42:45Z</time>
      </trkpt>
      <trkpt lat="44.46474" lon="4.72743">
        <ele>282.17</ele>
        <time>2022-01-16T14:42:49Z</time>
      </trkpt>
      <trkpt lat="44.46464" lon="4.72733">
        <ele>280.87</ele>
        <time>2022-01-16T14:43:04Z</time>
      </trkpt>
      <trkpt lat="44.46462" lon="4.7273">
        <ele>280.45</ele>
        <time>2022-01-16T14:43:07Z</time>
      </trkpt>
      <trkpt lat="44.46449" lon="4.72715">
        <ele>279.2</ele>
        <time>2022-01-16T14:43:20Z</time>
      </trkpt>
      <trkpt lat="44.46446" lon="4.72711">
        <ele>278.81</ele>
        <time>2022-01-16T14:43:23Z</time>
      </trkpt>
      <trkpt lat="44.46445" lon="4.72708">
        <ele>278.51</ele>
        <time>2022-01-16T14:43:26Z</time>
      </trkpt>
      <trkpt lat="44.46442" lon="4.72702">
        <ele>277.97</ele>
        <time>2022-01-16T14:43:31Z</time>
      </trkpt>
      <trkpt lat="44.46435" lon="4.72675">
        <ele>275.84</ele>
        <time>2022-01-16T14:43:49Z</time>
      </trkpt>
      <trkpt lat="44.46436" lon="4.72661">
        <ele>275.23</ele>
        <time>2022-01-16T14:43:59Z</time>
      </trkpt>
      <trkpt lat="44.46437" lon="4.72649">
        <ele>274.15</ele>
        <time>2022-01-16T14:44:14Z</time>
      </trkpt>
      <trkpt lat="44.46437" lon="4.72642">
        <ele>273.99</ele>
        <time>2022-01-16T14:44:26Z</time>
      </trkpt>
      <trkpt lat="44.46439" lon="4.72627">
        <ele>271.6</ele>
        <time>2022-01-16T14:44:36Z</time>
      </trkpt>
      <trkpt lat="44.46438" lon="4.72605">
        <ele>269.94</ele>
        <time>2022-01-16T14:44:52Z</time>
      </trkpt>
      <trkpt lat="44.46438" lon="4.72594">
        <ele>269.37</ele>
        <time>2022-01-16T14:44:58Z</time>
      </trkpt>
      <trkpt lat="44.46445" lon="4.72574">
        <ele>267.71</ele>
        <time>2022-01-16T14:45:13Z</time>
      </trkpt>
      <trkpt lat="44.46446" lon="4.7257">
        <ele>267.78</ele>
        <time>2022-01-16T14:45:16Z</time>
      </trkpt>
      <trkpt lat="44.46458" lon="4.72548">
        <ele>265.68</ele>
        <time>2022-01-16T14:45:34Z</time>
      </trkpt>
      <trkpt lat="44.4646" lon="4.72541">
        <ele>265.32</ele>
        <time>2022-01-16T14:45:39Z</time>
      </trkpt>
      <trkpt lat="44.46467" lon="4.72515">
        <ele>263.16</ele>
        <time>2022-01-16T14:45:58Z</time>
      </trkpt>
      <trkpt lat="44.46467" lon="4.72513">
        <ele>262.88</ele>
        <time>2022-01-16T14:45:59Z</time>
      </trkpt>
      <trkpt lat="44.46475" lon="4.72501">
        <ele>260.57</ele>
        <time>2022-01-16T14:46:09Z</time>
      </trkpt>
      <trkpt lat="44.46479" lon="4.72498">
        <ele>260.48</ele>
        <time>2022-01-16T14:46:14Z</time>
      </trkpt>
      <trkpt lat="44.46483" lon="4.72492">
        <ele>258.75</ele>
        <time>2022-01-16T14:46:20Z</time>
      </trkpt>
      <trkpt lat="44.4649" lon="4.72474">
        <ele>256.09</ele>
        <time>2022-01-16T14:46:37Z</time>
      </trkpt>
      <trkpt lat="44.46497" lon="4.72455">
        <ele>255.49</ele>
        <time>2022-01-16T14:46:53Z</time>
      </trkpt>
      <trkpt lat="44.46498" lon="4.72453">
        <ele>254.77</ele>
        <time>2022-01-16T14:46:55Z</time>
      </trkpt>
      <trkpt lat="44.46501" lon="4.72446">
        <ele>254.32</ele>
        <time>2022-01-16T14:47:00Z</time>
      </trkpt>
      <trkpt lat="44.4651" lon="4.72428">
        <ele>252.4</ele>
        <time>2022-01-16T14:47:14Z</time>
      </trkpt>
      <trkpt lat="44.46518" lon="4.72413">
        <ele>252.3</ele>
        <time>2022-01-16T14:47:31Z</time>
      </trkpt>
      <trkpt lat="44.46519" lon="4.7241">
        <ele>252.3</ele>
        <time>2022-01-16T14:47:35Z</time>
      </trkpt>
      <trkpt lat="44.46522" lon="4.72404">
        <ele>251.11</ele>
        <time>2022-01-16T14:47:40Z</time>
      </trkpt>
      <trkpt lat="44.46524" lon="4.72394">
        <ele>250.58</ele>
        <time>2022-01-16T14:47:54Z</time>
      </trkpt>
      <trkpt lat="44.46526" lon="4.72391">
        <ele>249.72</ele>
        <time>2022-01-16T14:47:57Z</time>
      </trkpt>
      <trkpt lat="44.46527" lon="4.72385">
        <ele>250.03</ele>
        <time>2022-01-16T14:48:01Z</time>
      </trkpt>
      <trkpt lat="44.46524" lon="4.72372">
        <ele>249.86</ele>
        <time>2022-01-16T14:48:19Z</time>
      </trkpt>
      <trkpt lat="44.46527" lon="4.72372">
        <ele>249.42</ele>
        <time>2022-01-16T14:48:38Z</time>
      </trkpt>
      <trkpt lat="44.46532" lon="4.72369">
        <ele>249.86</ele>
        <time>2022-01-16T14:48:44Z</time>
      </trkpt>
      <trkpt lat="44.46545" lon="4.72365">
        <ele>250.43</ele>
        <time>2022-01-16T14:48:59Z</time>
      </trkpt>
      <trkpt lat="44.46554" lon="4.72364">
        <ele>250.73</ele>
        <time>2022-01-16T14:49:13Z</time>
      </trkpt>
      <trkpt lat="44.46547" lon="4.72365">
        <ele>249.62</ele>
        <time>2022-01-16T14:49:23Z</time>
      </trkpt>
      <trkpt lat="44.46536" lon="4.72368">
        <ele>249.75</ele>
        <time>2022-01-16T14:49:36Z</time>
      </trkpt>
      <trkpt lat="44.46534" lon="4.72355">
        <ele>247.64</ele>
        <time>2022-01-16T14:49:53Z</time>
      </trkpt>
      <trkpt lat="44.46538" lon="4.72339">
        <ele>246.18</ele>
        <time>2022-01-16T14:50:10Z</time>
      </trkpt>
      <trkpt lat="44.46541" lon="4.72325">
        <ele>244.2</ele>
        <time>2022-01-16T14:50:26Z</time>
      </trkpt>
      <trkpt lat="44.46544" lon="4.72309">
        <ele>243.32</ele>
        <time>2022-01-16T14:50:39Z</time>
      </trkpt>
      <trkpt lat="44.46541" lon="4.72292">
        <ele>241.68</ele>
        <time>2022-01-16T14:50:52Z</time>
      </trkpt>
      <trkpt lat="44.46541" lon="4.72279">
        <ele>241.45</ele>
        <time>2022-01-16T14:51:01Z</time>
      </trkpt>
      <trkpt lat="44.46542" lon="4.72275">
        <ele>241.73</ele>
        <time>2022-01-16T14:51:04Z</time>
      </trkpt>
      <trkpt lat="44.46546" lon="4.72255">
        <ele>240.05</ele>
        <time>2022-01-16T14:51:19Z</time>
      </trkpt>
      <trkpt lat="44.46542" lon="4.72232">
        <ele>238.28</ele>
        <time>2022-01-16T14:51:35Z</time>
      </trkpt>
      <trkpt lat="44.46542" lon="4.7223">
        <ele>238.09</ele>
        <time>2022-01-16T14:51:37Z</time>
      </trkpt>
      <trkpt lat="44.46546" lon="4.72212">
        <ele>237.58</ele>
        <time>2022-01-16T14:51:51Z</time>
      </trkpt>
      <trkpt lat="44.46549" lon="4.72202">
        <ele>236.88</ele>
        <time>2022-01-16T14:51:58Z</time>
      </trkpt>
      <trkpt lat="44.46553" lon="4.72197">
        <ele>234.96</ele>
        <time>2022-01-16T14:52:03Z</time>
      </trkpt>
      <trkpt lat="44.46555" lon="4.72192">
        <ele>236.11</ele>
        <time>2022-01-16T14:52:07Z</time>
      </trkpt>
      <trkpt lat="44.46556" lon="4.72182">
        <ele>235.68</ele>
        <time>2022-01-16T14:52:16Z</time>
      </trkpt>
      <trkpt lat="44.46566" lon="4.72173">
        <ele>234.77</ele>
        <time>2022-01-16T14:52:31Z</time>
      </trkpt>
      <trkpt lat="44.46577" lon="4.72163">
        <ele>232.72</ele>
        <time>2022-01-16T14:52:45Z</time>
      </trkpt>
      <trkpt lat="44.46577" lon="4.72162">
        <ele>231.7</ele>
        <time>2022-01-16T14:52:47Z</time>
      </trkpt>
      <trkpt lat="44.46578" lon="4.7216">
        <ele>233.04</ele>
        <time>2022-01-16T14:52:49Z</time>
      </trkpt>
      <trkpt lat="44.4658" lon="4.7216">
        <ele>232.64</ele>
        <time>2022-01-16T14:52:54Z</time>
      </trkpt>
      <trkpt lat="44.46589" lon="4.72156">
        <ele>230.75</ele>
        <time>2022-01-16T14:53:05Z</time>
      </trkpt>
      <trkpt lat="44.46596" lon="4.72153">
        <ele>228.64</ele>
        <time>2022-01-16T14:53:12Z</time>
      </trkpt>
      <trkpt lat="44.46605" lon="4.72147">
        <ele>227.55</ele>
        <time>2022-01-16T14:53:25Z</time>
      </trkpt>
      <trkpt lat="44.46611" lon="4.72135">
        <ele>226.25</ele>
        <time>2022-01-16T14:53:39Z</time>
      </trkpt>
      <trkpt lat="44.46612" lon="4.72128">
        <ele>225.88</ele>
        <time>2022-01-16T14:53:45Z</time>
      </trkpt>
      <trkpt lat="44.46615" lon="4.72113">
        <ele>221.72</ele>
        <time>2022-01-16T14:53:58Z</time>
      </trkpt>
      <trkpt lat="44.46616" lon="4.72111">
        <ele>224.11</ele>
        <time>2022-01-16T14:54:00Z</time>
      </trkpt>
      <trkpt lat="44.46617" lon="4.72108">
        <ele>222.29</ele>
        <time>2022-01-16T14:54:02Z</time>
      </trkpt>
      <trkpt lat="44.46623" lon="4.721">
        <ele>223</ele>
        <time>2022-01-16T14:54:12Z</time>
      </trkpt>
      <trkpt lat="44.4663" lon="4.72099">
        <ele>221.53</ele>
        <time>2022-01-16T14:54:17Z</time>
      </trkpt>
      <trkpt lat="44.46635" lon="4.72097">
        <ele>221.67</ele>
        <time>2022-01-16T14:54:22Z</time>
      </trkpt>
      <trkpt lat="44.46645" lon="4.72095">
        <ele>221.51</ele>
        <time>2022-01-16T14:54:32Z</time>
      </trkpt>
      <trkpt lat="44.46658" lon="4.72086">
        <ele>218.71</ele>
        <time>2022-01-16T14:54:46Z</time>
      </trkpt>
      <trkpt lat="44.46662" lon="4.72074">
        <ele>218.58</ele>
        <time>2022-01-16T14:55:02Z</time>
      </trkpt>
      <trkpt lat="44.46658" lon="4.72065">
        <ele>217.25</ele>
        <time>2022-01-16T14:55:11Z</time>
      </trkpt>
      <trkpt lat="44.46652" lon="4.72044">
        <ele>214.95</ele>
        <time>2022-01-16T14:55:27Z</time>
      </trkpt>
      <trkpt lat="44.4665" lon="4.72041">
        <ele>214.32</ele>
        <time>2022-01-16T14:55:29Z</time>
      </trkpt>
      <trkpt lat="44.46643" lon="4.72021">
        <ele>212.37</ele>
        <time>2022-01-16T14:55:45Z</time>
      </trkpt>
      <trkpt lat="44.46642" lon="4.72019">
        <ele>212.37</ele>
        <time>2022-01-16T14:55:46Z</time>
      </trkpt>
      <trkpt lat="44.46638" lon="4.72014">
        <ele>211.98</ele>
        <time>2022-01-16T14:55:56Z</time>
      </trkpt>
      <trkpt lat="44.46627" lon="4.72003">
        <ele>210.03</ele>
        <time>2022-01-16T14:56:08Z</time>
      </trkpt>
      <trkpt lat="44.46614" lon="4.71993">
        <ele>207.82</ele>
        <time>2022-01-16T14:56:23Z</time>
      </trkpt>
      <trkpt lat="44.46611" lon="4.71992">
        <ele>207.58</ele>
        <time>2022-01-16T14:56:32Z</time>
      </trkpt>
      <trkpt lat="44.46608" lon="4.71991">
        <ele>207.99</ele>
        <time>2022-01-16T14:56:35Z</time>
      </trkpt>
      <trkpt lat="44.46592" lon="4.71983">
        <ele>206.48</ele>
        <time>2022-01-16T14:56:51Z</time>
      </trkpt>
      <trkpt lat="44.46584" lon="4.71975">
        <ele>205.35</ele>
        <time>2022-01-16T14:57:00Z</time>
      </trkpt>
      <trkpt lat="44.46576" lon="4.71971">
        <ele>204.4</ele>
        <time>2022-01-16T14:57:06Z</time>
      </trkpt>
      <trkpt lat="44.46571" lon="4.71968">
        <ele>204.1</ele>
        <time>2022-01-16T14:57:11Z</time>
      </trkpt>
      <trkpt lat="44.46555" lon="4.71962">
        <ele>202.58</ele>
        <time>2022-01-16T14:57:24Z</time>
      </trkpt>
      <trkpt lat="44.4654" lon="4.71954">
        <ele>202.3</ele>
        <time>2022-01-16T14:57:38Z</time>
      </trkpt>
      <trkpt lat="44.46526" lon="4.71945">
        <ele>200.35</ele>
        <time>2022-01-16T14:57:51Z</time>
      </trkpt>
      <trkpt lat="44.46512" lon="4.71936">
        <ele>198.72</ele>
        <time>2022-01-16T14:58:05Z</time>
      </trkpt>
      <trkpt lat="44.46497" lon="4.71929">
        <ele>197.9</ele>
        <time>2022-01-16T14:58:18Z</time>
      </trkpt>
      <trkpt lat="44.46491" lon="4.71924">
        <ele>196.63</ele>
        <time>2022-01-16T14:58:24Z</time>
      </trkpt>
      <trkpt lat="44.46482" lon="4.71914">
        <ele>195.22</ele>
        <time>2022-01-16T14:58:40Z</time>
      </trkpt>
      <trkpt lat="44.46473" lon="4.719">
        <ele>194.74</ele>
        <time>2022-01-16T14:58:55Z</time>
      </trkpt>
      <trkpt lat="44.4647" lon="4.71895">
        <ele>193.74</ele>
        <time>2022-01-16T14:58:59Z</time>
      </trkpt>
      <trkpt lat="44.4646" lon="4.71875">
        <ele>191.71</ele>
        <time>2022-01-16T14:59:15Z</time>
      </trkpt>
      <trkpt lat="44.46453" lon="4.71874">
        <ele>189.57</ele>
        <time>2022-01-16T14:59:24Z</time>
      </trkpt>
      <trkpt lat="44.46449" lon="4.71879">
        <ele>192.41</ele>
        <time>2022-01-16T14:59:29Z</time>
      </trkpt>
      <trkpt lat="44.46445" lon="4.71884">
        <ele>192.05</ele>
        <time>2022-01-16T14:59:36Z</time>
      </trkpt>
      <trkpt lat="44.46443" lon="4.71885">
        <ele>192.7</ele>
        <time>2022-01-16T14:59:38Z</time>
      </trkpt>
      <trkpt lat="44.46437" lon="4.71892">
        <ele>192.01</ele>
        <time>2022-01-16T14:59:45Z</time>
      </trkpt>
      <trkpt lat="44.46423" lon="4.71907">
        <ele>191.97</ele>
        <time>2022-01-16T15:00:00Z</time>
      </trkpt>
      <trkpt lat="44.46416" lon="4.71912">
        <ele>191.42</ele>
        <time>2022-01-16T15:00:07Z</time>
      </trkpt>
      <trkpt lat="44.46413" lon="4.71914">
        <ele>190.78</ele>
        <time>2022-01-16T15:00:10Z</time>
      </trkpt>
      <trkpt lat="44.46401" lon="4.71921">
        <ele>189.68</ele>
        <time>2022-01-16T15:00:21Z</time>
      </trkpt>
      <trkpt lat="44.46391" lon="4.71932">
        <ele>188.88</ele>
        <time>2022-01-16T15:00:32Z</time>
      </trkpt>
      <trkpt lat="44.46383" lon="4.71943">
        <ele>189.18</ele>
        <time>2022-01-16T15:00:42Z</time>
      </trkpt>
      <trkpt lat="44.46381" lon="4.71944">
        <ele>188.91</ele>
        <time>2022-01-16T15:00:44Z</time>
      </trkpt>
      <trkpt lat="44.4637" lon="4.71956">
        <ele>188.64</ele>
        <time>2022-01-16T15:00:56Z</time>
      </trkpt>
      <trkpt lat="44.46367" lon="4.71959">
        <ele>188.63</ele>
        <time>2022-01-16T15:01:00Z</time>
      </trkpt>
      <trkpt lat="44.46363" lon="4.71963">
        <ele>188.73</ele>
        <time>2022-01-16T15:01:04Z</time>
      </trkpt>
      <trkpt lat="44.46351" lon="4.7198">
        <ele>188.16</ele>
        <time>2022-01-16T15:01:20Z</time>
      </trkpt>
      <trkpt lat="44.4634" lon="4.7199">
        <ele>188.33</ele>
        <time>2022-01-16T15:01:37Z</time>
      </trkpt>
      <trkpt lat="44.46326" lon="4.72002">
        <ele>189.25</ele>
        <time>2022-01-16T15:01:56Z</time>
      </trkpt>
      <trkpt lat="44.46324" lon="4.72004">
        <ele>189.04</ele>
        <time>2022-01-16T15:01:58Z</time>
      </trkpt>
      <trkpt lat="44.46316" lon="4.72013">
        <ele>188.56</ele>
        <time>2022-01-16T15:02:13Z</time>
      </trkpt>
      <trkpt lat="44.4631" lon="4.72019">
        <ele>188.94</ele>
        <time>2022-01-16T15:02:21Z</time>
      </trkpt>
      <trkpt lat="44.46296" lon="4.72032">
        <ele>189.92</ele>
        <time>2022-01-16T15:02:35Z</time>
      </trkpt>
      <trkpt lat="44.46295" lon="4.72034">
        <ele>189.96</ele>
        <time>2022-01-16T15:02:36Z</time>
      </trkpt>
      <trkpt lat="44.46287" lon="4.72042">
        <ele>190.16</ele>
        <time>2022-01-16T15:02:46Z</time>
      </trkpt>
      <trkpt lat="44.46276" lon="4.72055">
        <ele>189.74</ele>
        <time>2022-01-16T15:02:58Z</time>
      </trkpt>
      <trkpt lat="44.46266" lon="4.72074">
        <ele>189.96</ele>
        <time>2022-01-16T15:03:12Z</time>
      </trkpt>
      <trkpt lat="44.46262" lon="4.72079">
        <ele>189.66</ele>
        <time>2022-01-16T15:03:17Z</time>
      </trkpt>
      <trkpt lat="44.4626" lon="4.72086">
        <ele>189.29</ele>
        <time>2022-01-16T15:03:22Z</time>
      </trkpt>
      <trkpt lat="44.46256" lon="4.72089">
        <ele>188.77</ele>
        <time>2022-01-16T15:03:26Z</time>
      </trkpt>
      <trkpt lat="44.46252" lon="4.72097">
        <ele>188.43</ele>
        <time>2022-01-16T15:03:32Z</time>
      </trkpt>
      <trkpt lat="44.46241" lon="4.7211">
        <ele>188.09</ele>
        <time>2022-01-16T15:03:43Z</time>
      </trkpt>
      <trkpt lat="44.46233" lon="4.72121">
        <ele>187.88</ele>
        <time>2022-01-16T15:03:53Z</time>
      </trkpt>
      <trkpt lat="44.46229" lon="4.72126">
        <ele>187.56</ele>
        <time>2022-01-16T15:03:58Z</time>
      </trkpt>
      <trkpt lat="44.46217" lon="4.72149">
        <ele>187.91</ele>
        <time>2022-01-16T15:04:14Z</time>
      </trkpt>
      <trkpt lat="44.46214" lon="4.72157">
        <ele>187.24</ele>
        <time>2022-01-16T15:04:26Z</time>
      </trkpt>
      <trkpt lat="44.46212" lon="4.7216">
        <ele>188.12</ele>
        <time>2022-01-16T15:04:36Z</time>
      </trkpt>
      <trkpt lat="44.46206" lon="4.7217">
        <ele>187.34</ele>
        <time>2022-01-16T15:04:47Z</time>
      </trkpt>
      <trkpt lat="44.46199" lon="4.72185">
        <ele>187.39</ele>
        <time>2022-01-16T15:04:58Z</time>
      </trkpt>
      <trkpt lat="44.46191" lon="4.72203">
        <ele>186.85</ele>
        <time>2022-01-16T15:05:12Z</time>
      </trkpt>
      <trkpt lat="44.46186" lon="4.72214">
        <ele>186.71</ele>
        <time>2022-01-16T15:05:20Z</time>
      </trkpt>
      <trkpt lat="44.46176" lon="4.72237">
        <ele>186.22</ele>
        <time>2022-01-16T15:05:37Z</time>
      </trkpt>
      <trkpt lat="44.46174" lon="4.72242">
        <ele>186.22</ele>
        <time>2022-01-16T15:05:42Z</time>
      </trkpt>
      <trkpt lat="44.46172" lon="4.72247">
        <ele>186.55</ele>
        <time>2022-01-16T15:05:45Z</time>
      </trkpt>
      <trkpt lat="44.46169" lon="4.72256">
        <ele>186.52</ele>
        <time>2022-01-16T15:05:50Z</time>
      </trkpt>
      <trkpt lat="44.46161" lon="4.72279">
        <ele>185.78</ele>
        <time>2022-01-16T15:06:04Z</time>
      </trkpt>
      <trkpt lat="44.46159" lon="4.72301">
        <ele>185.93</ele>
        <time>2022-01-16T15:06:18Z</time>
      </trkpt>
      <trkpt lat="44.46159" lon="4.72308">
        <ele>185.91</ele>
        <time>2022-01-16T15:06:22Z</time>
      </trkpt>
      <trkpt lat="44.46157" lon="4.72321">
        <ele>186.22</ele>
        <time>2022-01-16T15:06:30Z</time>
      </trkpt>
      <trkpt lat="44.46157" lon="4.72328">
        <ele>186.6</ele>
        <time>2022-01-16T15:06:34Z</time>
      </trkpt>
      <trkpt lat="44.46154" lon="4.72345">
        <ele>187.77</ele>
        <time>2022-01-16T15:06:44Z</time>
      </trkpt>
      <trkpt lat="44.46154" lon="4.72347">
        <ele>188.14</ele>
        <time>2022-01-16T15:06:45Z</time>
      </trkpt>
      <trkpt lat="44.46151" lon="4.7237">
        <ele>189.39</ele>
        <time>2022-01-16T15:06:59Z</time>
      </trkpt>
      <trkpt lat="44.4615" lon="4.72375">
        <ele>189.72</ele>
        <time>2022-01-16T15:07:03Z</time>
      </trkpt>
      <trkpt lat="44.4615" lon="4.7239">
        <ele>190.36</ele>
        <time>2022-01-16T15:07:19Z</time>
      </trkpt>
      <trkpt lat="44.46153" lon="4.72396">
        <ele>190.66</ele>
        <time>2022-01-16T15:07:29Z</time>
      </trkpt>
      <trkpt lat="44.46156" lon="4.72405">
        <ele>190.13</ele>
        <time>2022-01-16T15:07:35Z</time>
      </trkpt>
      <trkpt lat="44.46162" lon="4.72421">
        <ele>190.33</ele>
        <time>2022-01-16T15:07:48Z</time>
      </trkpt>
      <trkpt lat="44.46164" lon="4.72428">
        <ele>189.97</ele>
        <time>2022-01-16T15:07:52Z</time>
      </trkpt>
      <trkpt lat="44.46165" lon="4.72431">
        <ele>189.88</ele>
        <time>2022-01-16T15:07:54Z</time>
      </trkpt>
      <trkpt lat="44.46168" lon="4.7245">
        <ele>190.35</ele>
        <time>2022-01-16T15:08:08Z</time>
      </trkpt>
      <trkpt lat="44.46169" lon="4.72455">
        <ele>190.57</ele>
        <time>2022-01-16T15:08:12Z</time>
      </trkpt>
      <trkpt lat="44.46169" lon="4.72468">
        <ele>190.56</ele>
        <time>2022-01-16T15:08:27Z</time>
      </trkpt>
      <trkpt lat="44.46177" lon="4.72477">
        <ele>191.36</ele>
        <time>2022-01-16T15:08:49Z</time>
      </trkpt>
      <trkpt lat="44.46179" lon="4.72481">
        <ele>191.19</ele>
        <time>2022-01-16T15:09:05Z</time>
      </trkpt>
      <trkpt lat="44.46181" lon="4.72487">
        <ele>191.48</ele>
        <time>2022-01-16T15:09:09Z</time>
      </trkpt>
      <trkpt lat="44.46188" lon="4.72501">
        <ele>192.23</ele>
        <time>2022-01-16T15:09:22Z</time>
      </trkpt>
      <trkpt lat="44.46195" lon="4.72519">
        <ele>195.39</ele>
        <time>2022-01-16T15:09:39Z</time>
      </trkpt>
      <trkpt lat="44.46199" lon="4.72541">
        <ele>196.5</ele>
        <time>2022-01-16T15:09:59Z</time>
      </trkpt>
      <trkpt lat="44.46203" lon="4.72562">
        <ele>198.46</ele>
        <time>2022-01-16T15:10:16Z</time>
      </trkpt>
      <trkpt lat="44.46206" lon="4.72577">
        <ele>199.64</ele>
        <time>2022-01-16T15:10:27Z</time>
      </trkpt>
      <trkpt lat="44.46211" lon="4.72597">
        <ele>201.87</ele>
        <time>2022-01-16T15:10:47Z</time>
      </trkpt>
      <trkpt lat="44.46213" lon="4.72617">
        <ele>203.47</ele>
        <time>2022-01-16T15:11:06Z</time>
      </trkpt>
      <trkpt lat="44.46221" lon="4.72635">
        <ele>205.42</ele>
        <time>2022-01-16T15:11:25Z</time>
      </trkpt>
      <trkpt lat="44.46228" lon="4.72648">
        <ele>207.12</ele>
        <time>2022-01-16T15:11:43Z</time>
      </trkpt>
      <trkpt lat="44.46231" lon="4.72661">
        <ele>208.19</ele>
        <time>2022-01-16T15:11:58Z</time>
      </trkpt>
      <trkpt lat="44.4624" lon="4.7268">
        <ele>210.94</ele>
        <time>2022-01-16T15:12:17Z</time>
      </trkpt>
      <trkpt lat="44.46245" lon="4.727">
        <ele>212.92</ele>
        <time>2022-01-16T15:12:34Z</time>
      </trkpt>
      <trkpt lat="44.46253" lon="4.72722">
        <ele>214.7</ele>
        <time>2022-01-16T15:12:53Z</time>
      </trkpt>
      <trkpt lat="44.46261" lon="4.72737">
        <ele>217.75</ele>
        <time>2022-01-16T15:13:08Z</time>
      </trkpt>
      <trkpt lat="44.46263" lon="4.72761">
        <ele>218.61</ele>
        <time>2022-01-16T15:13:27Z</time>
      </trkpt>
      <trkpt lat="44.46267" lon="4.72778">
        <ele>220.16</ele>
        <time>2022-01-16T15:13:44Z</time>
      </trkpt>
      <trkpt lat="44.46274" lon="4.7279">
        <ele>220.95</ele>
        <time>2022-01-16T15:14:02Z</time>
      </trkpt>
      <trkpt lat="44.46278" lon="4.72793">
        <ele>221.41</ele>
        <time>2022-01-16T15:14:10Z</time>
      </trkpt>
      <trkpt lat="44.46284" lon="4.72798">
        <ele>221.27</ele>
        <time>2022-01-16T15:14:37Z</time>
      </trkpt>
      <trkpt lat="44.46281" lon="4.72798">
        <ele>221.09</ele>
        <time>2022-01-16T15:15:05Z</time>
      </trkpt>
      <trkpt lat="44.46279" lon="4.72797">
        <ele>221.33</ele>
        <time>2022-01-16T15:15:28Z</time>
      </trkpt>
      <trkpt lat="44.46283" lon="4.72798">
        <ele>221.13</ele>
        <time>2022-01-16T15:15:52Z</time>
      </trkpt>
      <trkpt lat="44.46283" lon="4.72816">
        <ele>222.66</ele>
        <time>2022-01-16T15:16:11Z</time>
      </trkpt>
      <trkpt lat="44.46279" lon="4.72821">
        <ele>222.28</ele>
        <time>2022-01-16T15:16:26Z</time>
      </trkpt>
      <trkpt lat="44.46275" lon="4.7282">
        <ele>221.27</ele>
        <time>2022-01-16T15:16:45Z</time>
      </trkpt>
      <trkpt lat="44.46273" lon="4.72818">
        <ele>221.11</ele>
        <time>2022-01-16T15:16:49Z</time>
      </trkpt>
      <trkpt lat="44.46266" lon="4.7281">
        <ele>221.43</ele>
        <time>2022-01-16T15:17:01Z</time>
      </trkpt>
      <trkpt lat="44.46251" lon="4.72803">
        <ele>220.52</ele>
        <time>2022-01-16T15:17:22Z</time>
      </trkpt>
      <trkpt lat="44.46247" lon="4.72803">
        <ele>221.74</ele>
        <time>2022-01-16T15:17:26Z</time>
      </trkpt>
      <trkpt lat="44.46243" lon="4.72801">
        <ele>221.73</ele>
        <time>2022-01-16T15:17:30Z</time>
      </trkpt>
      <trkpt lat="44.46228" lon="4.72792">
        <ele>221.38</ele>
        <time>2022-01-16T15:17:47Z</time>
      </trkpt>
      <trkpt lat="44.46219" lon="4.72792">
        <ele>221.5</ele>
        <time>2022-01-16T15:17:59Z</time>
      </trkpt>
      <trkpt lat="44.46203" lon="4.72795">
        <ele>221.44</ele>
        <time>2022-01-16T15:18:15Z</time>
      </trkpt>
      <trkpt lat="44.46189" lon="4.72805">
        <ele>221.37</ele>
        <time>2022-01-16T15:18:31Z</time>
      </trkpt>
      <trkpt lat="44.4618" lon="4.72829">
        <ele>221.48</ele>
        <time>2022-01-16T15:18:51Z</time>
      </trkpt>
      <trkpt lat="44.46175" lon="4.72839">
        <ele>221.83</ele>
        <time>2022-01-16T15:19:08Z</time>
      </trkpt>
      <trkpt lat="44.46173" lon="4.72854">
        <ele>222.34</ele>
        <time>2022-01-16T15:19:26Z</time>
      </trkpt>
      <trkpt lat="44.46169" lon="4.72857">
        <ele>221.42</ele>
        <time>2022-01-16T15:19:53Z</time>
      </trkpt>
      <trkpt lat="44.46156" lon="4.72867">
        <ele>220.7</ele>
        <time>2022-01-16T15:20:09Z</time>
      </trkpt>
      <trkpt lat="44.46136" lon="4.72885">
        <ele>219.25</ele>
        <time>2022-01-16T15:20:30Z</time>
      </trkpt>
      <trkpt lat="44.46121" lon="4.72897">
        <ele>217.03</ele>
        <time>2022-01-16T15:20:49Z</time>
      </trkpt>
      <trkpt lat="44.4612" lon="4.72896">
        <ele>217.53</ele>
        <time>2022-01-16T15:21:08Z</time>
      </trkpt>
      <trkpt lat="44.46112" lon="4.729">
        <ele>216.75</ele>
        <time>2022-01-16T15:21:22Z</time>
      </trkpt>
      <trkpt lat="44.46101" lon="4.7291">
        <ele>215.11</ele>
        <time>2022-01-16T15:21:43Z</time>
      </trkpt>
      <trkpt lat="44.4609" lon="4.72915">
        <ele>213.08</ele>
        <time>2022-01-16T15:21:55Z</time>
      </trkpt>
      <trkpt lat="44.46073" lon="4.72909">
        <ele>210.38</ele>
        <time>2022-01-16T15:22:12Z</time>
      </trkpt>
      <trkpt lat="44.46063" lon="4.72897">
        <ele>210.26</ele>
        <time>2022-01-16T15:22:29Z</time>
      </trkpt>
      <trkpt lat="44.46063" lon="4.72898">
        <ele>209.64</ele>
        <time>2022-01-16T15:22:31Z</time>
      </trkpt>
      <trkpt lat="44.46059" lon="4.72903">
        <ele>207.9</ele>
        <time>2022-01-16T15:22:51Z</time>
      </trkpt>
      <trkpt lat="44.46059" lon="4.72902">
        <ele>207.62</ele>
        <time>2022-01-16T15:23:12Z</time>
      </trkpt>
      <trkpt lat="44.46062" lon="4.72891">
        <ele>208.71</ele>
        <time>2022-01-16T15:23:27Z</time>
      </trkpt>
      <trkpt lat="44.46055" lon="4.72883">
        <ele>205.65</ele>
        <time>2022-01-16T15:23:41Z</time>
      </trkpt>
      <trkpt lat="44.46048" lon="4.72892">
        <ele>205.37</ele>
        <time>2022-01-16T15:23:59Z</time>
      </trkpt>
      <trkpt lat="44.4605" lon="4.72889">
        <ele>205.82</ele>
        <time>2022-01-16T15:24:18Z</time>
      </trkpt>
      <trkpt lat="44.46052" lon="4.72893">
        <ele>206.09</ele>
        <time>2022-01-16T15:24:40Z</time>
      </trkpt>
      <trkpt lat="44.46053" lon="4.72894">
        <ele>205.13</ele>
        <time>2022-01-16T15:24:57Z</time>
      </trkpt>
      <trkpt lat="44.4605" lon="4.72896">
        <ele>205.96</ele>
        <time>2022-01-16T15:25:17Z</time>
      </trkpt>
      <trkpt lat="44.46047" lon="4.72897">
        <ele>205.68</ele>
        <time>2022-01-16T15:25:35Z</time>
      </trkpt>
      <trkpt lat="44.46049" lon="4.72892">
        <ele>204.73</ele>
        <time>2022-01-16T15:25:59Z</time>
      </trkpt>
      <trkpt lat="44.46053" lon="4.72885">
        <ele>204.38</ele>
        <time>2022-01-16T15:26:17Z</time>
      </trkpt>
      <trkpt lat="44.4606" lon="4.72884">
        <ele>207.57</ele>
        <time>2022-01-16T15:26:35Z</time>
      </trkpt>
      <trkpt lat="44.46065" lon="4.72868">
        <ele>204.53</ele>
        <time>2022-01-16T15:26:50Z</time>
      </trkpt>
      <trkpt lat="44.46069" lon="4.7285">
        <ele>202.05</ele>
        <time>2022-01-16T15:27:05Z</time>
      </trkpt>
      <trkpt lat="44.4607" lon="4.72828">
        <ele>199.07</ele>
        <time>2022-01-16T15:27:22Z</time>
      </trkpt>
      <trkpt lat="44.46067" lon="4.72819">
        <ele>198.28</ele>
        <time>2022-01-16T15:27:38Z</time>
      </trkpt>
      <trkpt lat="44.46071" lon="4.72802">
        <ele>195.93</ele>
        <time>2022-01-16T15:27:56Z</time>
      </trkpt>
      <trkpt lat="44.46073" lon="4.72795">
        <ele>195.35</ele>
        <time>2022-01-16T15:28:01Z</time>
      </trkpt>
      <trkpt lat="44.46077" lon="4.72783">
        <ele>193.5</ele>
        <time>2022-01-16T15:28:15Z</time>
      </trkpt>
      <trkpt lat="44.46083" lon="4.72775">
        <ele>192.23</ele>
        <time>2022-01-16T15:28:28Z</time>
      </trkpt>
      <trkpt lat="44.46084" lon="4.72772">
        <ele>191.42</ele>
        <time>2022-01-16T15:28:30Z</time>
      </trkpt>
      <trkpt lat="44.4609" lon="4.72757">
        <ele>190.25</ele>
        <time>2022-01-16T15:28:42Z</time>
      </trkpt>
      <trkpt lat="44.46088" lon="4.72736">
        <ele>187.75</ele>
        <time>2022-01-16T15:28:58Z</time>
      </trkpt>
      <trkpt lat="44.46086" lon="4.72727">
        <ele>187.22</ele>
        <time>2022-01-16T15:29:14Z</time>
      </trkpt>
      <trkpt lat="44.46079" lon="4.72722">
        <ele>185.56</ele>
        <time>2022-01-16T15:29:25Z</time>
      </trkpt>
      <trkpt lat="44.46073" lon="4.72723">
        <ele>185.05</ele>
        <time>2022-01-16T15:29:30Z</time>
      </trkpt>
      <trkpt lat="44.4607" lon="4.72722">
        <ele>185.32</ele>
        <time>2022-01-16T15:29:32Z</time>
      </trkpt>
      <trkpt lat="44.46062" lon="4.7272">
        <ele>185.18</ele>
        <time>2022-01-16T15:29:47Z</time>
      </trkpt>
      <trkpt lat="44.46062" lon="4.72723">
        <ele>185.5</ele>
        <time>2022-01-16T15:29:52Z</time>
      </trkpt>
      <trkpt lat="44.46059" lon="4.7273">
        <ele>185.62</ele>
        <time>2022-01-16T15:29:57Z</time>
      </trkpt>
      <trkpt lat="44.46055" lon="4.72737">
        <ele>185.26</ele>
        <time>2022-01-16T15:30:03Z</time>
      </trkpt>
      <trkpt lat="44.46052" lon="4.7274">
        <ele>184.6</ele>
        <time>2022-01-16T15:30:07Z</time>
      </trkpt>
      <trkpt lat="44.46045" lon="4.7275">
        <ele>184.71</ele>
        <time>2022-01-16T15:30:19Z</time>
      </trkpt>
      <trkpt lat="44.4604" lon="4.72759">
        <ele>184.04</ele>
        <time>2022-01-16T15:30:27Z</time>
      </trkpt>
      <trkpt lat="44.46035" lon="4.72768">
        <ele>184.05</ele>
        <time>2022-01-16T15:30:34Z</time>
      </trkpt>
      <trkpt lat="44.46027" lon="4.72779">
        <ele>183.02</ele>
        <time>2022-01-16T15:30:49Z</time>
      </trkpt>
      <trkpt lat="44.4602" lon="4.7279">
        <ele>182.76</ele>
        <time>2022-01-16T15:31:03Z</time>
      </trkpt>
      <trkpt lat="44.46018" lon="4.72793">
        <ele>182.67</ele>
        <time>2022-01-16T15:31:06Z</time>
      </trkpt>
      <trkpt lat="44.4601" lon="4.72805">
        <ele>182.56</ele>
        <time>2022-01-16T15:31:19Z</time>
      </trkpt>
      <trkpt lat="44.45992" lon="4.72838">
        <ele>181.15</ele>
        <time>2022-01-16T15:31:45Z</time>
      </trkpt>
      <trkpt lat="44.45984" lon="4.72854">
        <ele>180.61</ele>
        <time>2022-01-16T15:32:02Z</time>
      </trkpt>
      <trkpt lat="44.45976" lon="4.72867">
        <ele>179.99</ele>
        <time>2022-01-16T15:32:21Z</time>
      </trkpt>
      <trkpt lat="44.4597" lon="4.72875">
        <ele>179.73</ele>
        <time>2022-01-16T15:32:39Z</time>
      </trkpt>
      <trkpt lat="44.4596" lon="4.72891">
        <ele>177.92</ele>
        <time>2022-01-16T15:32:54Z</time>
      </trkpt>
      <trkpt lat="44.45952" lon="4.72902">
        <ele>176.87</ele>
        <time>2022-01-16T15:33:07Z</time>
      </trkpt>
      <trkpt lat="44.45952" lon="4.72909">
        <ele>176.38</ele>
        <time>2022-01-16T15:33:22Z</time>
      </trkpt>
      <trkpt lat="44.45955" lon="4.72911">
        <ele>175.8</ele>
        <time>2022-01-16T15:33:26Z</time>
      </trkpt>
      <trkpt lat="44.45958" lon="4.72917">
        <ele>175.89</ele>
        <time>2022-01-16T15:33:35Z</time>
      </trkpt>
      <trkpt lat="44.45962" lon="4.72938">
        <ele>175.41</ele>
        <time>2022-01-16T15:33:52Z</time>
      </trkpt>
      <trkpt lat="44.45962" lon="4.72972">
        <ele>174.52</ele>
        <time>2022-01-16T15:34:12Z</time>
      </trkpt>
      <trkpt lat="44.45961" lon="4.72974">
        <ele>174.36</ele>
        <time>2022-01-16T15:34:13Z</time>
      </trkpt>
      <trkpt lat="44.45961" lon="4.72984">
        <ele>173.76</ele>
        <time>2022-01-16T15:34:19Z</time>
      </trkpt>
      <trkpt lat="44.45962" lon="4.73008">
        <ele>172.72</ele>
        <time>2022-01-16T15:34:35Z</time>
      </trkpt>
      <trkpt lat="44.45961" lon="4.73013">
        <ele>172.01</ele>
        <time>2022-01-16T15:34:40Z</time>
      </trkpt>
      <trkpt lat="44.45958" lon="4.73044">
        <ele>171.45</ele>
        <time>2022-01-16T15:34:57Z</time>
      </trkpt>
      <trkpt lat="44.4596" lon="4.73058">
        <ele>171.4</ele>
        <time>2022-01-16T15:35:05Z</time>
      </trkpt>
      <trkpt lat="44.45963" lon="4.73081">
        <ele>170.48</ele>
        <time>2022-01-16T15:35:23Z</time>
      </trkpt>
      <trkpt lat="44.45967" lon="4.73092">
        <ele>169.65</ele>
        <time>2022-01-16T15:35:31Z</time>
      </trkpt>
      <trkpt lat="44.45972" lon="4.73123">
        <ele>167.72</ele>
        <time>2022-01-16T15:35:48Z</time>
      </trkpt>
      <trkpt lat="44.45978" lon="4.73145">
        <ele>167.45</ele>
        <time>2022-01-16T15:36:04Z</time>
      </trkpt>
      <trkpt lat="44.4598" lon="4.7315">
        <ele>166.81</ele>
        <time>2022-01-16T15:36:09Z</time>
      </trkpt>
      <trkpt lat="44.45984" lon="4.73162">
        <ele>166.25</ele>
        <time>2022-01-16T15:36:17Z</time>
      </trkpt>
      <trkpt lat="44.45987" lon="4.73179">
        <ele>165.62</ele>
        <time>2022-01-16T15:36:33Z</time>
      </trkpt>
      <trkpt lat="44.45992" lon="4.73199">
        <ele>164.33</ele>
        <time>2022-01-16T15:36:48Z</time>
      </trkpt>
      <trkpt lat="44.45994" lon="4.73203">
        <ele>164.19</ele>
        <time>2022-01-16T15:36:50Z</time>
      </trkpt>
      <trkpt lat="44.45998" lon="4.73214">
        <ele>164.32</ele>
        <time>2022-01-16T15:36:56Z</time>
      </trkpt>
      <trkpt lat="44.46003" lon="4.73239">
        <ele>162.25</ele>
        <time>2022-01-16T15:37:14Z</time>
      </trkpt>
      <trkpt lat="44.46004" lon="4.7325">
        <ele>162.02</ele>
        <time>2022-01-16T15:37:20Z</time>
      </trkpt>
      <trkpt lat="44.46003" lon="4.73266">
        <ele>161.91</ele>
        <time>2022-01-16T15:37:27Z</time>
      </trkpt>
      <trkpt lat="44.46007" lon="4.73289">
        <ele>161.18</ele>
        <time>2022-01-16T15:37:42Z</time>
      </trkpt>
      <trkpt lat="44.4601" lon="4.73321">
        <ele>159.7</ele>
        <time>2022-01-16T15:38:03Z</time>
      </trkpt>
      <trkpt lat="44.46016" lon="4.73349">
        <ele>159.33</ele>
        <time>2022-01-16T15:38:20Z</time>
      </trkpt>
      <trkpt lat="44.46016" lon="4.7335">
        <ele>159.54</ele>
        <time>2022-01-16T15:38:21Z</time>
      </trkpt>
      <trkpt lat="44.46027" lon="4.7338">
        <ele>160.07</ele>
        <time>2022-01-16T15:38:40Z</time>
      </trkpt>
      <trkpt lat="44.46029" lon="4.73382">
        <ele>159.61</ele>
        <time>2022-01-16T15:38:44Z</time>
      </trkpt>
      <trkpt lat="44.46041" lon="4.73409">
        <ele>158.88</ele>
        <time>2022-01-16T15:39:03Z</time>
      </trkpt>
      <trkpt lat="44.46042" lon="4.73414">
        <ele>158.23</ele>
        <time>2022-01-16T15:39:09Z</time>
      </trkpt>
      <trkpt lat="44.46044" lon="4.7342">
        <ele>158.58</ele>
        <time>2022-01-16T15:39:13Z</time>
      </trkpt>
      <trkpt lat="44.4605" lon="4.73437">
        <ele>157.57</ele>
        <time>2022-01-16T15:39:25Z</time>
      </trkpt>
      <trkpt lat="44.46063" lon="4.73458">
        <ele>154.41</ele>
        <time>2022-01-16T15:39:42Z</time>
      </trkpt>
      <trkpt lat="44.46068" lon="4.73469">
        <ele>152.86</ele>
        <time>2022-01-16T15:39:49Z</time>
      </trkpt>
      <trkpt lat="44.46078" lon="4.73497">
        <ele>149.86</ele>
        <time>2022-01-16T15:40:05Z</time>
      </trkpt>
      <trkpt lat="44.46076" lon="4.73524">
        <ele>147.45</ele>
        <time>2022-01-16T15:40:20Z</time>
      </trkpt>
      <trkpt lat="44.46067" lon="4.73533">
        <ele>145.56</ele>
        <time>2022-01-16T15:40:30Z</time>
      </trkpt>
      <trkpt lat="44.46063" lon="4.73531">
        <ele>146.5</ele>
        <time>2022-01-16T15:40:37Z</time>
      </trkpt>
      <trkpt lat="44.4606" lon="4.73529">
        <ele>146.56</ele>
        <time>2022-01-16T15:40:39Z</time>
      </trkpt>
      <trkpt lat="44.46056" lon="4.73525">
        <ele>145.12</ele>
        <time>2022-01-16T15:40:43Z</time>
      </trkpt>
    </trkseg>
  </trk>
</gpx>